Observation data for Earth on 05/24/2019      Previous  Date  Next       Current Mesonet Observations  Soil Data  Daily Summary Page  Observations in Plain Language
KEA1 240500Z 22008KT 17/14 A2995 RMK A01 T01680142  RH  085%=      5-min Rain = 0
KEA1 240501Z 19008KT 17/14 A2996 RMK A01 T01680142  RH  085%=      5-min Rain = 0
KEA1 240502Z 20008KT 17/14 A2996 RMK A01 T01670141  RH  085%=      5-min Rain = 0
KEA1 240503Z 20008KT 17/14 A2996 RMK A01 T01670141  RH  085%=      5-min Rain = 0
KEA1 240504Z 19008KT 17/14 A2997 RMK A01 T01660141  RH  085%=      5-min Rain = 0
KEA1 240505Z 20006KT 17/14 A2997 RMK A01 T01650141  RH  085%=      5-min Rain = 0
KEA1 240506Z 20006KT 17/14 A2997 RMK A01 T01650141  RH  086%=      5-min Rain = 0
KEA1 240507Z 19006KT 16/14 A2997 RMK A01 T01640141  RH  086%=      5-min Rain = 0
KEA1 240508Z 17005KT 16/14 A2997 RMK A01 T01640141  RH  086%=      5-min Rain = 0
KEA1 240509Z 16006KT 16/14 A2997 RMK A01 T01630140  RH  087%=      5-min Rain = 0
KEA1 240510Z 17008KT 16/14 A2997 RMK A01 T01630141  RH  087%=      5-min Rain = 0
KEA1 240511Z 16006KT 16/14 A2997 RMK A01 T01620141  RH  087%=      5-min Rain = 0
KEA1 240512Z 15006KT 16/14 A2997 RMK A01 T01620141  RH  087%=      5-min Rain = 0
KEA1 240513Z 14007KT 16/14 A2997 RMK A01 T01610140  RH  087%=      5-min Rain = 0
KEA1 240514Z 15007KT 16/14 A2997 RMK A01 T01610140  RH  087%=      5-min Rain = 0
KEA1 240515Z 15008KT 16/14 A2997 RMK A01 T01600140  RH  088%=      5-min Rain = 0
KEA1 240516Z 15008KT 16/14 A2997 RMK A01 T01600140  RH  088%=      5-min Rain = 0
KEA1 240517Z 14007KT 16/14 A2997 RMK A01 T01590140  RH  088%=      5-min Rain = 0
KEA1 240518Z 13006KT 16/14 A2997 RMK A01 T01580139  RH  088%=      5-min Rain = 0
KEA1 240519Z 13006KT 16/14 A2997 RMK A01 T01580139  RH  089%=      5-min Rain = 0
KEA1 240520Z 14005KT 16/14 A2997 RMK A01 T01580139  RH  089%=      5-min Rain = 0
KEA1 240521Z 18003KT 16/14 A2997 RMK A01 T01580139  RH  089%=      5-min Rain = 0
KEA1 240522Z 19005KT 16/14 A2997 RMK A01 T01570139  RH  089%=      5-min Rain = 0
KEA1 240523Z 20005KT 16/14 A2997 RMK A01 T01570139  RH  089%=      5-min Rain = 0
KEA1 240524Z 19005KT 16/14 A2997 RMK A01 T01570139  RH  089%=      5-min Rain = 0
KEA1 240525Z 18006KT 16/14 A2997 RMK A01 T01570139  RH  089%=      5-min Rain = 0
KEA1 240526Z 18007KT 16/14 A2997 RMK A01 T01570139  RH  089%=      5-min Rain = 0
KEA1 240527Z 17005KT 16/14 A2997 RMK A01 T01570139  RH  089%=      5-min Rain = 0
KEA1 240528Z 16006KT 16/14 A2998 RMK A01 T01570139  RH  089%=      5-min Rain = 0
KEA1 240529Z 15007KT 16/14 A2998 RMK A01 T01570139  RH  089%=      5-min Rain = 0
KEA1 240530Z 14007KT 16/14 A2998 RMK A01 T01570139  RH  089%=      5-min Rain = 0
KEA1 240531Z 14008KT 16/14 A2998 RMK A01 T01560139  RH  089%=      5-min Rain = 0
KEA1 240532Z 14007KT 16/14 A2997 RMK A01 T01560139  RH  090%=      5-min Rain = 0
KEA1 240533Z 13005KT 16/14 A2997 RMK A01 T01560139  RH  090%=      5-min Rain = 0
KEA1 240534Z 13004KT 16/14 A2997 RMK A01 T01560139  RH  090%=      5-min Rain = 0
KEA1 240535Z 14004KT 16/14 A2997 RMK A01 T01560139  RH  090%=      5-min Rain = 0
KEA1 240536Z 17003KT 16/14 A2997 RMK A01 T01560139  RH  090%=      5-min Rain = 0
KEA1 240537Z 17002KT 16/14 A2997 RMK A01 T01560139  RH  090%=      5-min Rain = 0
KEA1 240538Z 16003KT 16/14 A2997 RMK A01 T01560139  RH  090%=      5-min Rain = 0
KEA1 240539Z 15004KT 16/14 A2998 RMK A01 T01560139  RH  090%=      5-min Rain = 0
KEA1 240540Z 13004KT 16/14 A2997 RMK A01 T01550138  RH  090%=      5-min Rain = 0
KEA1 240541Z 12005KT 16/14 A2997 RMK A01 T01550138  RH  090%=      5-min Rain = 0
KEA1 240542Z 11005KT 16/14 A2997 RMK A01 T01550139  RH  090%=      5-min Rain = 0
KEA1 240543Z 11005KT 15/14 A2997 RMK A01 T01540138  RH  090%=      5-min Rain = 0
KEA1 240544Z 11005KT 16/14 A2997 RMK A01 T01550139  RH  090%=      5-min Rain = 0
KEA1 240545Z 11004KT 16/14 A2997 RMK A01 T01550139  RH  090%=      5-min Rain = 0
KEA1 240546Z 10003KT 15/14 A2997 RMK A01 T01540138  RH  090%=      5-min Rain = 0
KEA1 240547Z 10003KT 15/14 A2997 RMK A01 T01540138  RH  090%=      5-min Rain = 0
KEA1 240548Z 08002KT 15/14 A2997 RMK A01 T01540138  RH  090%=      5-min Rain = 0
KEA1 240549Z 07002KT 15/14 A2997 RMK A01 T01540138  RH  090%=      5-min Rain = 0
KEA1 240550Z 06003KT 15/14 A2996 RMK A01 T01540138  RH  090%=      5-min Rain = 0
KEA1 240551Z 06003KT 15/14 A2996 RMK A01 T01540138  RH  090%=      5-min Rain = 0
KEA1 240552Z 05003KT 15/14 A2996 RMK A01 T01540138  RH  090%=      5-min Rain = 0
KEA1 240553Z 04003KT 15/14 A2996 RMK A01 T01540138  RH  090%=      5-min Rain = 0
KEA1 240554Z 05002KT 15/14 A2996 RMK A01 T01540138  RH  090%=      5-min Rain = 0
KEA1 240555Z 04001KT 15/14 A2996 RMK A01 T01530138  RH  090%=      5-min Rain = 0
KEA1 240556Z 03000KT 15/14 A2996 RMK A01 T01530138  RH  090%=      5-min Rain = 0
KEA1 240557Z 00000KT 15/14 A2996 RMK A01 T01540138  RH  090%=      5-min Rain = 0
KEA1 240558Z 00000KT 15/14 A2997 RMK A01 T01540138  RH  090%=      5-min Rain = 0
KEA1 240559Z 00000KT 15/14 A2997 RMK A01 T01530138  RH  090%=      5-min Rain = 0
KEA1 240600Z 12000KT 15/14 A2997 RMK A01 T01540138  RH  090%=      5-min Rain = 0
KEA1 240606Z 10003KT 15/14 A2997 RMK A01 T01520136  RH  090%=      5-min Rain = 0
KEA1 240607Z 10004KT 15/14 A2998 RMK A01 T01510135  RH  090%=      5-min Rain = 0
KEA1 240608Z 10004KT 15/14 A2998 RMK A01 T01500135  RH  090%=      5-min Rain = 0
KEA1 240609Z 09005KT 15/13 A2998 RMK A01 T01500134  RH  090%=      5-min Rain = 0
KEA1 240610Z 10006KT 15/13 A2998 RMK A01 T01490134  RH  091%=      5-min Rain = 0
KEA1 240611Z 10006KT 15/13 A2998 RMK A01 T01490134  RH  091%=      5-min Rain = 0
KEA1 240612Z 11007KT 15/14 A2999 RMK A01 T01490135  RH  091%=      5-min Rain = 0
KEA1 240613Z 11007KT 15/14 A2999 RMK A01 T01500135  RH  091%=      5-min Rain = 0
KEA1 240614Z 11005KT 15/14 A2999 RMK A01 T01500135  RH  091%=      5-min Rain = 0
KEA1 240615Z 11005KT 15/14 A2999 RMK A01 T01510135  RH  090%=      5-min Rain = 0
KEA1 240616Z 11004KT 15/14 A2999 RMK A01 T01510135  RH  090%=      5-min Rain = 0
KEA1 240617Z 10004KT 15/14 A2998 RMK A01 T01510135  RH  090%=      5-min Rain = 0
KEA1 240618Z 10004KT 15/14 A2998 RMK A01 T01510135  RH  090%=      5-min Rain = 0
KEA1 240619Z 10005KT 15/14 A2999 RMK A01 T01510135  RH  090%=      5-min Rain = 0
KEA1 240620Z 10005KT 15/14 A2999 RMK A01 T01510135  RH  090%=      5-min Rain = 0
KEA1 240621Z 10005KT 15/14 A2999 RMK A01 T01510136  RH  091%=      5-min Rain = 0
KEA1 240622Z 10006KT 15/14 A2999 RMK A01 T01500135  RH  091%=      5-min Rain = 0
KEA1 240623Z 09005KT 15/14 A2999 RMK A01 T01500135  RH  091%=      5-min Rain = 0
KEA1 240624Z 09006KT 15/14 A2998 RMK A01 T01500136  RH  091%=      5-min Rain = 0
KEA1 240625Z 09006KT 15/14 A2998 RMK A01 T01500136  RH  091%=      5-min Rain = 0
KEA1 240626Z 09007KT 15/14 A2998 RMK A01 T01500136  RH  091%=      5-min Rain = 0
KEA1 240627Z 09006KT 15/14 A2998 RMK A01 T01500136  RH  092%=      5-min Rain = 0
KEA1 240628Z 09005KT 15/14 A2997 RMK A01 T01490136  RH  092%=      5-min Rain = 0
KEA1 240629Z 08005KT 15/14 A2997 RMK A01 T01490136  RH  092%=      5-min Rain = 0
KEA1 240630Z 07006KT 15/14 A2997 RMK A01 T01490136  RH  092%=      5-min Rain = 0
KEA1 240631Z 08007KT 15/14 A2997 RMK A01 T01480135  RH  092%=      5-min Rain = 0
KEA1 240632Z 08007KT 15/14 A2997 RMK A01 T01480136  RH  092%=      5-min Rain = 0
KEA1 240633Z 09006KT 15/14 A2997 RMK A01 T01480135  RH  092%=      5-min Rain = 0
KEA1 240634Z 10006KT 15/14 A2997 RMK A01 T01480135  RH  092%=      5-min Rain = 0
KEA1 240635Z 10006KT 15/14 A2997 RMK A01 T01480135  RH  092%=      5-min Rain = 0
KEA1 240636Z 10005KT 15/14 A2997 RMK A01 T01480135  RH  092%=      5-min Rain = 0
KEA1 240637Z 10004KT 15/14 A2997 RMK A01 T01470135  RH  092%=      5-min Rain = 0
KEA1 240638Z 09004KT 15/14 A2996 RMK A01 T01470135  RH  092%=      5-min Rain = 0
KEA1 240639Z 10003KT 15/13 A2996 RMK A01 T01470134  RH  092%=      5-min Rain = 0
KEA1 240640Z 10003KT 15/14 A2996 RMK A01 T01470135  RH  092%=      5-min Rain = 0
KEA1 240641Z 11003KT 15/14 A2996 RMK A01 T01470135  RH  092%=      5-min Rain = 0
KEA1 240642Z 11005KT 15/13 A2996 RMK A01 T01470134  RH  092%=      5-min Rain = 0
KEA1 240643Z 12006KT 15/13 A2996 RMK A01 T01470134  RH  092%=      5-min Rain = 0
KEA1 240644Z 12006KT 15/13 A2996 RMK A01 T01470134  RH  092%=      5-min Rain = 0
KEA1 240645Z 11005KT 15/13 A2996 RMK A01 T01460133  RH  092%=      5-min Rain = 0
KEA1 240646Z 11005KT 15/13 A2996 RMK A01 T01460133  RH  092%=      5-min Rain = 0
KEA1 240647Z 10004KT 15/13 A2996 RMK A01 T01450133  RH  092%=      5-min Rain = 0
KEA1 240648Z 10004KT 15/13 A2996 RMK A01 T01450133  RH  092%=      5-min Rain = 0
KEA1 240649Z 10004KT 15/13 A2996 RMK A01 T01450132  RH  092%=      5-min Rain = 0
KEA1 240650Z 10004KT 14/13 A2996 RMK A01 T01440131  RH  092%=      5-min Rain = 0
KEA1 240651Z 10004KT 14/13 A2996 RMK A01 T01430131  RH  092%=      5-min Rain = 0
KEA1 240652Z 10004KT 14/13 A2996 RMK A01 T01430130  RH  092%=      5-min Rain = 0
KEA1 240653Z 10005KT 14/13 A2996 RMK A01 T01420130  RH  093%=      5-min Rain = 0
KEA1 240654Z 10005KT 14/13 A2996 RMK A01 T01420130  RH  093%=      5-min Rain = 0
KEA1 240655Z 10004KT 14/13 A2996 RMK A01 T01420130  RH  093%=      5-min Rain = 0
KEA1 240656Z 10004KT 14/13 A2996 RMK A01 T01420130  RH  093%=      5-min Rain = 0
KEA1 240657Z 11004KT 14/13 A2996 RMK A01 T01410130  RH  093%=      5-min Rain = 0
KEA1 240658Z 11005KT 14/13 A2995 RMK A01 T01410130  RH  093%=      5-min Rain = 0
KEA1 240659Z 11005KT 14/13 A2995 RMK A01 T01410130  RH  093%=      5-min Rain = 0
KEA1 240700Z 11005KT 14/13 A2995 RMK A01 T01410130  RH  093%=      5-min Rain = 0
KEA1 240701Z 11005KT 14/13 A2995 RMK A01 T01410129  RH  093%=      5-min Rain = 0
KEA1 240702Z 11005KT 14/13 A2995 RMK A01 T01400129  RH  093%=      5-min Rain = 0
KEA1 240703Z 11005KT 14/13 A2995 RMK A01 T01400129  RH  093%=      5-min Rain = 0
KEA1 240704Z 11005KT 14/13 A2995 RMK A01 T01400129  RH  093%=      5-min Rain = 0
KEA1 240705Z 11005KT 14/13 A2995 RMK A01 T01400128  RH  093%=      5-min Rain = 0
KEA1 240706Z 11005KT 14/13 A2995 RMK A01 T01390128  RH  093%=      5-min Rain = 0
KEA1 240707Z 11005KT 14/13 A2995 RMK A01 T01380127  RH  093%=      5-min Rain = 0
KEA1 240708Z 11005KT 14/13 A2995 RMK A01 T01380127  RH  093%=      5-min Rain = 0
KEA1 240709Z 12006KT 14/13 A2996 RMK A01 T01370127  RH  094%=      5-min Rain = 0
KEA1 240710Z 12005KT 14/13 A2996 RMK A01 T01370127  RH  094%=      5-min Rain = 0
KEA1 240711Z 12005KT 14/13 A2996 RMK A01 T01360125  RH  093%=      5-min Rain = 0
KEA1 240712Z 12005KT 13/12 A2996 RMK A01 T01340124  RH  093%=      5-min Rain = 0
KEA1 240713Z 11003KT 13/13 A2995 RMK A01 T01340125  RH  094%=      5-min Rain = 0
KEA1 240714Z 11004KT 14/13 A2995 RMK A01 T01350127  RH  095%=      5-min Rain = 0
KEA1 240715Z 11004KT 14/13 A2996 RMK A01 T01360128  RH  095%=      5-min Rain = 0
KEA1 240716Z 11007KT 14/13 A2996 RMK A01 T01350127  RH  094%=      5-min Rain = 0
KEA1 240717Z 12010KT 14/13 A2996 RMK A01 T01350126  RH  094%=      5-min Rain = 0
KEA1 240718Z 13010KT 14/13 A2997 RMK A01 T01350126  RH  094%=      5-min Rain = 0
KEA1 240719Z 13010KT 13/13 A2997 RMK A01 T01340125  RH  094%=      5-min Rain = 0
KEA1 240720Z 13009KT 13/12 A2996 RMK A01 T01330124  RH  094%=      5-min Rain = 0
KEA1 240721Z 13008KT 13/12 A2996 RMK A01 T01330124  RH  094%=      5-min Rain = 0
KEA1 240722Z 12008KT 13/12 A2996 RMK A01 T01330124  RH  095%=      5-min Rain = 0
KEA1 240723Z 12008KT 13/12 A2996 RMK A01 T01330124  RH  095%=      5-min Rain = 0
KEA1 240724Z 12008KT 13/12 A2996 RMK A01 T01330124  RH  094%=      5-min Rain = 0
KEA1 240725Z 12008KT 13/12 A2996 RMK A01 T01320124  RH  095%=      5-min Rain = 0
KEA1 240726Z 12009KT 13/12 A2996 RMK A01 T01320124  RH  095%=      5-min Rain = 0
KEA1 240727Z 12008KT 13/13 A2996 RMK A01 T01320125  RH  095%=      5-min Rain = 0
KEA1 240728Z 11007KT 13/13 A2996 RMK A01 T01330125  RH  095%=      5-min Rain = 0
KEA1 240729Z 10006KT 13/13 A2996 RMK A01 T01330125  RH  095%=      5-min Rain = 0
KEA1 240730Z 10006KT 13/13 A2996 RMK A01 T01330125  RH  095%=      5-min Rain = 0
KEA1 240731Z 10007KT 13/12 A2996 RMK A01 T01320124  RH  095%=      5-min Rain = 0
KEA1 240732Z 10007KT 13/12 A2997 RMK A01 T01320124  RH  095%=      5-min Rain = 0
KEA1 240733Z 11007KT 13/12 A2997 RMK A01 T01310124  RH  096%=      5-min Rain = 0
KEA1 240734Z 11008KT 13/13 A2997 RMK A01 T01320125  RH  096%=      5-min Rain = 0
KEA1 240735Z 12008KT 13/13 A2997 RMK A01 T01330126  RH  096%=      5-min Rain = 0
KEA1 240736Z 13007KT 13/13 A2997 RMK A01 T01330127  RH  096%=      5-min Rain = 0
KEA1 240737Z 13007KT 13/13 A2997 RMK A01 T01330127  RH  096%=      5-min Rain = 0
KEA1 240738Z 12006KT 13/13 A2996 RMK A01 T01330127  RH  096%=      5-min Rain = 0
KEA1 240739Z 11006KT 13/13 A2996 RMK A01 T01330127  RH  096%=      5-min Rain = 0
KEA1 240740Z 11006KT 13/13 A2996 RMK A01 T01330127  RH  096%=      5-min Rain = 0
KEA1 240741Z 12006KT 13/13 A2996 RMK A01 T01330126  RH  096%=      5-min Rain = 0
KEA1 240742Z 13006KT 13/13 A2996 RMK A01 T01330126  RH  096%=      5-min Rain = 0
KEA1 240743Z 14006KT 13/13 A2996 RMK A01 T01330126  RH  096%=      5-min Rain = 0
KEA1 240744Z 14005KT 13/13 A2997 RMK A01 T01330126  RH  096%=      5-min Rain = 0
KEA1 240745Z 14005KT 13/13 A2996 RMK A01 T01330126  RH  095%=      5-min Rain = 0
KEA1 240746Z 13004KT 13/13 A2996 RMK A01 T01320125  RH  095%=      5-min Rain = 0
KEA1 240747Z 12004KT 13/13 A2996 RMK A01 T01320125  RH  096%=      5-min Rain = 0
KEA1 240748Z 12004KT 13/13 A2996 RMK A01 T01320125  RH  096%=      5-min Rain = 0
KEA1 240749Z 12005KT 13/12 A2996 RMK A01 T01310124  RH  096%=      5-min Rain = 0
KEA1 240750Z 12005KT 13/12 A2996 RMK A01 T01310124  RH  096%=      5-min Rain = 0
KEA1 240751Z 12004KT 13/12 A2996 RMK A01 T01310124  RH  096%=      5-min Rain = 0
KEA1 240752Z 12004KT 13/12 A2996 RMK A01 T01310124  RH  096%=      5-min Rain = 0
KEA1 240753Z 11003KT 13/12 A2996 RMK A01 T01310124  RH  096%=      5-min Rain = 0
KEA1 240754Z 12004KT 13/12 A2996 RMK A01 T01310124  RH  096%=      5-min Rain = 0
KEA1 240755Z 12004KT 13/12 A2996 RMK A01 T01300124  RH  096%=      5-min Rain = 0
KEA1 240756Z 12005KT 13/12 A2997 RMK A01 T01310124  RH  096%=      5-min Rain = 0
KEA1 240757Z 11006KT 13/12 A2997 RMK A01 T01300123  RH  096%=      5-min Rain = 0
KEA1 240758Z 11007KT 13/12 A2997 RMK A01 T01290121  RH  095%=      5-min Rain = 0
KEA1 240759Z 12007KT 13/12 A2997 RMK A01 T01280121  RH  095%=      5-min Rain = 0
KEA1 240800Z 12007KT 13/12 A2997 RMK A01 T01270121  RH  096%=      5-min Rain = 0
KEA1 240801Z 11007KT 13/12 A2997 RMK A01 T01280122  RH  096%=      5-min Rain = 0
KEA1 240802Z 11006KT 13/12 A2997 RMK A01 T01280122  RH  096%=      5-min Rain = 0
KEA1 240803Z 10005KT 13/12 A2997 RMK A01 T01280122  RH  096%=      5-min Rain = 0
KEA1 240804Z 10005KT 13/12 A2997 RMK A01 T01280121  RH  096%=      5-min Rain = 0
KEA1 240805Z 09005KT 13/12 A2997 RMK A01 T01260119  RH  096%=      5-min Rain = 0
KEA1 240806Z 10005KT 13/12 A2997 RMK A01 T01250119  RH  096%=      5-min Rain = 0
KEA1 240807Z 10005KT 13/12 A2998 RMK A01 T01250119  RH  096%=      5-min Rain = 0
KEA1 240808Z 11007KT 13/12 A2998 RMK A01 T01250119  RH  096%=      5-min Rain = 0
KEA1 240809Z 12007KT 13/12 A2998 RMK A01 T01260121  RH  097%=      5-min Rain = 0
KEA1 240810Z 11007KT 13/12 A2998 RMK A01 T01270122  RH  097%=      5-min Rain = 0
KEA1 240811Z 12008KT 13/12 A2998 RMK A01 T01270122  RH  097%=      5-min Rain = 0
KEA1 240812Z 12008KT 13/12 A2998 RMK A01 T01280123  RH  097%=      5-min Rain = 0
KEA1 240813Z 12008KT 13/12 A2998 RMK A01 T01280123  RH  097%=      5-min Rain = 0
KEA1 240814Z 12008KT 13/12 A2998 RMK A01 T01290124  RH  097%=      5-min Rain = 0
KEA1 240815Z 12008KT 13/13 A2998 RMK A01 T01290125  RH  097%=      5-min Rain = 0
KEA1 240816Z 13007KT 13/13 A2998 RMK A01 T01300125  RH  097%=      5-min Rain = 0
KEA1 240817Z 14007KT 13/13 A2999 RMK A01 T01300125  RH  097%=      5-min Rain = 0
KEA1 240818Z 14007KT 13/13 A2999 RMK A01 T01310126  RH  097%=      5-min Rain = 0
KEA1 240819Z 14007KT 13/13 A2999 RMK A01 T01310127  RH  097%=      5-min Rain = 0
KEA1 240820Z 12006KT 13/13 A2999 RMK A01 T01320127  RH  097%=      5-min Rain = 0
KEA1 240821Z 12006KT 13/13 A2998 RMK A01 T01320127  RH  097%=      5-min Rain = 0
KEA1 240822Z 12005KT 13/13 A2998 RMK A01 T01320127  RH  097%=      5-min Rain = 0
KEA1 240823Z 12005KT 13/13 A2998 RMK A01 T01320127  RH  097%=      5-min Rain = 0
KEA1 240824Z 12004KT 13/13 A2998 RMK A01 T01320127  RH  097%=      5-min Rain = 0
KEA1 240825Z 13005KT 13/13 A2998 RMK A01 T01330128  RH  097%=      5-min Rain = 0
KEA1 240826Z 15004KT 13/13 A2998 RMK A01 T01330127  RH  097%=      5-min Rain = 0
KEA1 240827Z 16005KT 13/13 A2998 RMK A01 T01330127  RH  096%=      5-min Rain = 0
KEA1 240828Z 16005KT 13/13 A2998 RMK A01 T01330127  RH  096%=      5-min Rain = 0
KEA1 240829Z 16004KT 13/13 A2998 RMK A01 T01330127  RH  096%=      5-min Rain = 0
KEA1 240830Z 17003KT 13/13 A2998 RMK A01 T01330127  RH  096%=      5-min Rain = 0
KEA1 240831Z 16003KT 13/13 A2997 RMK A01 T01330127  RH  096%=      5-min Rain = 0
KEA1 240832Z 17003KT 13/13 A2997 RMK A01 T01330127  RH  096%=      5-min Rain = 0
KEA1 240833Z 17004KT 13/13 A2997 RMK A01 T01330127  RH  096%=      5-min Rain = 0
KEA1 240834Z 18003KT 13/13 A2997 RMK A01 T01330127  RH  096%=      5-min Rain = 0
KEA1 240835Z 18003KT 13/13 A2997 RMK A01 T01330127  RH  096%=      5-min Rain = 0
KEA1 240836Z 18003KT 13/13 A2997 RMK A01 T01320126  RH  096%=      5-min Rain = 0
KEA1 240837Z 17003KT 13/13 A2997 RMK A01 T01320127  RH  096%=      5-min Rain = 0
KEA1 240838Z 17003KT 13/13 A2997 RMK A01 T01320127  RH  096%=      5-min Rain = 0
KEA1 240839Z 17004KT 13/13 A2997 RMK A01 T01320127  RH  096%=      5-min Rain = 0
KEA1 240840Z 18004KT 13/13 A2997 RMK A01 T01320127  RH  096%=      5-min Rain = 0
KEA1 240841Z 18004KT 13/13 A2997 RMK A01 T01320127  RH  096%=      5-min Rain = 0
KEA1 240842Z 18004KT 13/13 A2997 RMK A01 T01320126  RH  096%=      5-min Rain = 0
KEA1 240843Z 19004KT 13/13 A2996 RMK A01 T01320126  RH  096%=      5-min Rain = 0
KEA1 240844Z 20004KT 13/13 A2996 RMK A01 T01310125  RH  096%=      5-min Rain = 0
KEA1 240845Z 20004KT 13/13 A2996 RMK A01 T01310125  RH  096%=      5-min Rain = 0
KEA1 240846Z 21004KT 13/13 A2996 RMK A01 T01300125  RH  096%=      5-min Rain = 0
KEA1 240847Z 20005KT 13/12 A2996 RMK A01 T01300124  RH  096%=      5-min Rain = 0
KEA1 240848Z 21005KT 13/12 A2996 RMK A01 T01300124  RH  096%=      5-min Rain = 0
KEA1 240849Z 21004KT 13/13 A2996 RMK A01 T01300125  RH  097%=      5-min Rain = 0
KEA1 240850Z 22004KT 13/13 A2996 RMK A01 T01310126  RH  097%=      5-min Rain = 0
KEA1 240851Z 21004KT 13/13 A2996 RMK A01 T01310126  RH  097%=      5-min Rain = 0
KEA1 240852Z 20003KT 13/13 A2996 RMK A01 T01310126  RH  097%=      5-min Rain = 0
KEA1 240853Z 18003KT 13/13 A2996 RMK A01 T01320127  RH  097%=      5-min Rain = 0
KEA1 240854Z 17003KT 13/13 A2996 RMK A01 T01320127  RH  097%=      5-min Rain = 0
KEA1 240855Z 16002KT 13/13 A2996 RMK A01 T01320126  RH  096%=      5-min Rain = 0
KEA1 240856Z 15002KT 13/12 A2997 RMK A01 T01310124  RH  096%=      5-min Rain = 0
KEA1 240857Z 12003KT 13/12 A2997 RMK A01 T01290123  RH  096%=      5-min Rain = 0
KEA1 240858Z 10003KT 13/12 A2997 RMK A01 T01280122  RH  096%=      5-min Rain = 0
KEA1 240859Z 10004KT 13/12 A2997 RMK A01 T01280122  RH  096%=      5-min Rain = 0
KEA1 240900Z 11003KT 13/12 A2997 RMK A01 T01270122  RH  096%=      5-min Rain = 0
KEA1 240901Z 12003KT 13/12 A2997 RMK A01 T01280123  RH  097%=      5-min Rain = 0
KEA1 240902Z 14001KT 13/12 A2997 RMK A01 T01280123  RH  097%=      5-min Rain = 0
KEA1 240903Z 00000KT 13/12 A2997 RMK A01 T01290124  RH  097%=      5-min Rain = 0
KEA1 240904Z 00000KT 13/12 A2997 RMK A01 T01290124  RH  097%=      5-min Rain = 0
KEA1 240905Z 00000KT 13/12 A2997 RMK A01 T01290124  RH  097%=      5-min Rain = 0
KEA1 240906Z 07000KT 13/12 A2997 RMK A01 T01290124  RH  097%=      5-min Rain = 0
KEA1 240907Z 09001KT 13/12 A2997 RMK A01 T01290124  RH  097%=      5-min Rain = 0
KEA1 240908Z 09001KT 13/12 A2997 RMK A01 T01290124  RH  097%=      5-min Rain = 0
KEA1 240909Z 09000KT 13/12 A2997 RMK A01 T01290124  RH  097%=      5-min Rain = 0
KEA1 240910Z 00000KT 13/12 A2997 RMK A01 T01290124  RH  097%=      5-min Rain = 0
KEA1 240911Z 24000KT 13/12 A2997 RMK A01 T01280124  RH  097%=      5-min Rain = 0
KEA1 240912Z 24001KT 13/12 A2997 RMK A01 T01290124  RH  097%=      5-min Rain = 0
KEA1 240913Z 24002KT 13/12 A2997 RMK A01 T01290124  RH  097%=      5-min Rain = 0
KEA1 240914Z 25002KT 13/12 A2997 RMK A01 T01290124  RH  097%=      5-min Rain = 0
KEA1 240915Z 24002KT 13/12 A2997 RMK A01 T01290124  RH  097%=      5-min Rain = 0
KEA1 240916Z 23002KT 13/12 A2997 RMK A01 T01290124  RH  097%=      5-min Rain = 0
KEA1 240917Z 23002KT 13/12 A2997 RMK A01 T01290124  RH  097%=      5-min Rain = 0
KEA1 240918Z 22002KT 13/12 A2997 RMK A01 T01290124  RH  097%=      5-min Rain = 0
KEA1 240919Z 22002KT 13/12 A2997 RMK A01 T01290124  RH  097%=      5-min Rain = 0
KEA1 240920Z 24002KT 13/12 A2997 RMK A01 T01290124  RH  097%=      5-min Rain = 0
KEA1 240921Z 25001KT 13/12 A2997 RMK A01 T01290124  RH  097%=      5-min Rain = 0
KEA1 240922Z 25001KT 13/12 A2997 RMK A01 T01290124  RH  097%=      5-min Rain = 0
KEA1 240923Z 25002KT 13/13 A2997 RMK A01 T01300125  RH  097%=      5-min Rain = 0
KEA1 240924Z 23002KT 13/13 A2997 RMK A01 T01290125  RH  097%=      5-min Rain = 0
KEA1 240925Z 22002KT 13/13 A2997 RMK A01 T01300125  RH  097%=      5-min Rain = 0
KEA1 240926Z 23002KT 13/13 A2997 RMK A01 T01300126  RH  097%=      5-min Rain = 0
KEA1 240927Z 22002KT 13/13 A2997 RMK A01 T01310127  RH  097%=      5-min Rain = 0
KEA1 240928Z 20002KT 13/13 A2997 RMK A01 T01320128  RH  097%=      5-min Rain = 0
KEA1 240929Z 18002KT 13/13 A2997 RMK A01 T01330129  RH  097%=      5-min Rain = 0
KEA1 240930Z 16003KT 13/13 A2997 RMK A01 T01340130  RH  097%=      5-min Rain = 0
KEA1 240931Z 15004KT 13/13 A2998 RMK A01 T01340130  RH  097%=      5-min Rain = 0
KEA1 240932Z 14004KT 13/13 A2998 RMK A01 T01330128  RH  097%=      5-min Rain = 0
KEA1 240933Z 15004KT 13/13 A2998 RMK A01 T01320126  RH  096%=      5-min Rain = 0
KEA1 240934Z 18003KT 13/13 A2998 RMK A01 T01310126  RH  097%=      5-min Rain = 0
KEA1 240935Z 21003KT 13/13 A2997 RMK A01 T01310125  RH  096%=      5-min Rain = 0
KEA1 240936Z 23004KT 13/13 A2997 RMK A01 T01310125  RH  096%=      5-min Rain = 0
KEA1 240937Z 24004KT 13/12 A2997 RMK A01 T01300124  RH  096%=      5-min Rain = 0
KEA1 240938Z 25004KT 13/12 A2997 RMK A01 T01290123  RH  096%=      5-min Rain = 0
KEA1 240939Z 24004KT 13/12 A2997 RMK A01 T01280122  RH  096%=      5-min Rain = 0
KEA1 240940Z 24004KT 13/12 A2997 RMK A01 T01280123  RH  096%=      5-min Rain = 0
KEA1 240941Z 25004KT 13/12 A2997 RMK A01 T01280123  RH  097%=      5-min Rain = 0
KEA1 240942Z 24004KT 13/12 A2997 RMK A01 T01290123  RH  097%=      5-min Rain = 0
KEA1 240943Z 24003KT 13/13 A2997 RMK A01 T01300125  RH  097%=      5-min Rain = 0
KEA1 240944Z 27003KT 13/13 A2997 RMK A01 T01310126  RH  097%=      5-min Rain = 0
KEA1 240945Z 26003KT 13/13 A2997 RMK A01 T01310126  RH  097%=      5-min Rain = 0
KEA1 240946Z 29003KT 13/13 A2996 RMK A01 T01320127  RH  097%=      5-min Rain = 0
KEA1 240947Z 29003KT 13/13 A2996 RMK A01 T01310125  RH  096%=      5-min Rain = 0
KEA1 240948Z 29003KT 13/13 A2996 RMK A01 T01300125  RH  096%=      5-min Rain = 0
KEA1 240949Z 28003KT 13/13 A2997 RMK A01 T01310126  RH  096%=      5-min Rain = 0
KEA1 240950Z 27002KT 13/13 A2997 RMK A01 T01310125  RH  096%=      5-min Rain = 0
KEA1 240951Z 27002KT 13/13 A2997 RMK A01 T01320126  RH  096%=      5-min Rain = 0
KEA1 240952Z 25002KT 13/13 A2997 RMK A01 T01320127  RH  096%=      5-min Rain = 0
KEA1 240953Z 22002KT 13/13 A2997 RMK A01 T01330127  RH  096%=      5-min Rain = 0
KEA1 240954Z 21002KT 13/13 A2997 RMK A01 T01330128  RH  097%=      5-min Rain = 0
KEA1 240955Z 21002KT 13/13 A2997 RMK A01 T01330127  RH  096%=      5-min Rain = 0
KEA1 240956Z 22002KT 13/13 A2997 RMK A01 T01320126  RH  096%=      5-min Rain = 0
KEA1 240957Z 21002KT 13/13 A2997 RMK A01 T01320126  RH  096%=      5-min Rain = 0
KEA1 240958Z 21002KT 13/13 A2998 RMK A01 T01330127  RH  096%=      5-min Rain = 0
KEA1 240959Z 22002KT 13/13 A2998 RMK A01 T01340128  RH  096%=      5-min Rain = 0
KEA1 241000Z 21002KT 13/13 A2998 RMK A01 T01320126  RH  096%=      5-min Rain = 0
KEA1 241001Z 22001KT 13/13 A2998 RMK A01 T01320126  RH  096%=      5-min Rain = 0
KEA1 241002Z 21001KT 13/13 A2998 RMK A01 T01320126  RH  096%=      5-min Rain = 0
KEA1 241003Z 00000KT 13/13 A2998 RMK A01 T01320125  RH  096%=      5-min Rain = 0
KEA1 241004Z 00000KT 13/12 A2998 RMK A01 T01300122  RH  095%=      5-min Rain = 0
KEA1 241005Z 00000KT 13/12 A2998 RMK A01 T01280120  RH  095%=      5-min Rain = 0
KEA1 241006Z 08001KT 13/12 A2998 RMK A01 T01280120  RH  095%=      5-min Rain = 0
KEA1 241007Z 09001KT 13/12 A2998 RMK A01 T01270120  RH  095%=      5-min Rain = 0
KEA1 241008Z 09000KT 13/12 A2998 RMK A01 T01260119  RH  095%=      5-min Rain = 0
KEA1 241009Z 00000KT 13/12 A2998 RMK A01 T01270121  RH  096%=      5-min Rain = 0
KEA1 241010Z 17000KT 13/12 A2998 RMK A01 T01280123  RH  096%=      5-min Rain = 0
KEA1 241011Z 18001KT 13/12 A2998 RMK A01 T01290124  RH  097%=      5-min Rain = 0
KEA1 241012Z 21001KT 13/13 A2998 RMK A01 T01300125  RH  097%=      5-min Rain = 0
KEA1 241013Z 23002KT 13/12 A2998 RMK A01 T01300124  RH  096%=      5-min Rain = 0
KEA1 241014Z 22002KT 13/12 A2998 RMK A01 T01290123  RH  096%=      5-min Rain = 0
KEA1 241015Z 21002KT 13/12 A2998 RMK A01 T01280122  RH  096%=      5-min Rain = 0
KEA1 241016Z 20002KT 13/12 A2998 RMK A01 T01290124  RH  097%=      5-min Rain = 0
KEA1 241017Z 23002KT 13/12 A2998 RMK A01 T01290122  RH  096%=      5-min Rain = 0
KEA1 241018Z 26002KT 13/12 A2998 RMK A01 T01250117  RH  095%=      5-min Rain = 0
KEA1 241019Z 26002KT 13/12 A2998 RMK A01 T01250119  RH  096%=      5-min Rain = 0
KEA1 241020Z 25003KT 13/12 A2998 RMK A01 T01260120  RH  096%=      5-min Rain = 0
KEA1 241021Z 26002KT 13/12 A2998 RMK A01 T01270121  RH  097%=      5-min Rain = 0
KEA1 241022Z 27003KT 13/12 A2998 RMK A01 T01270122  RH  097%=      5-min Rain = 0
KEA1 241023Z 24002KT 13/12 A2998 RMK A01 T01280123  RH  097%=      5-min Rain = 0
KEA1 241024Z 26002KT 13/12 A2998 RMK A01 T01270122  RH  096%=      5-min Rain = 0
KEA1 241025Z 26002KT 13/12 A2998 RMK A01 T01280123  RH  097%=      5-min Rain = 0
KEA1 241026Z 27001KT 13/12 A2998 RMK A01 T01280122  RH  096%=      5-min Rain = 0
KEA1 241027Z 27000KT 13/12 A2998 RMK A01 T01280123  RH  097%=      5-min Rain = 0
KEA1 241028Z 32000KT 13/12 A2998 RMK A01 T01280122  RH  096%=      5-min Rain = 0
KEA1 241029Z 32002KT 13/12 A2998 RMK A01 T01270121  RH  096%=      5-min Rain = 0
KEA1 241030Z 34002KT 13/12 A2998 RMK A01 T01260120  RH  096%=      5-min Rain = 0
KEA1 241031Z 33002KT 13/12 A2998 RMK A01 T01250118  RH  096%=      5-min Rain = 0
KEA1 241032Z 32002KT 12/12 A2998 RMK A01 T01230116  RH  095%=      5-min Rain = 0
KEA1 241033Z 32002KT 12/12 A2998 RMK A01 T01220115  RH  095%=      5-min Rain = 0
KEA1 241034Z 31003KT 12/12 A2998 RMK A01 T01220115  RH  096%=      5-min Rain = 0
KEA1 241035Z 30003KT 12/12 A2998 RMK A01 T01220115  RH  096%=      5-min Rain = 0
KEA1 241036Z 29003KT 12/12 A2998 RMK A01 T01230118  RH  097%=      5-min Rain = 0
KEA1 241037Z 30004KT 12/12 A2998 RMK A01 T01240119  RH  097%=      5-min Rain = 0
KEA1 241038Z 30005KT 12/12 A2998 RMK A01 T01240119  RH  096%=      5-min Rain = 0
KEA1 241039Z 30005KT 12/12 A2998 RMK A01 T01230118  RH  096%=      5-min Rain = 0
KEA1 241040Z 30004KT 12/12 A2998 RMK A01 T01230118  RH  096%=      5-min Rain = 0
KEA1 241041Z 29003KT 12/12 A2998 RMK A01 T01240119  RH  097%=      5-min Rain = 0
KEA1 241042Z 29002KT 13/12 A2998 RMK A01 T01250120  RH  097%=      5-min Rain = 0
KEA1 241043Z 28002KT 13/12 A2999 RMK A01 T01260121  RH  097%=      5-min Rain = 0
KEA1 241044Z 29002KT 13/12 A2999 RMK A01 T01260122  RH  097%=      5-min Rain = 0
KEA1 241045Z 31002KT 13/12 A2999 RMK A01 T01260122  RH  097%=      5-min Rain = 0
KEA1 241046Z 32001KT 13/12 A2999 RMK A01 T01260121  RH  097%=      5-min Rain = 0
KEA1 241047Z 33002KT 13/12 A2999 RMK A01 T01260120  RH  096%=      5-min Rain = 0
KEA1 241048Z 35003KT 13/12 A2999 RMK A01 T01250119  RH  096%=      5-min Rain = 0
KEA1 241049Z 35003KT 13/12 A2999 RMK A01 T01250119  RH  096%=      5-min Rain = 0
KEA1 241050Z 34002KT 13/12 A2999 RMK A01 T01250119  RH  096%=      5-min Rain = 0
KEA1 241051Z 33003KT 12/12 A2999 RMK A01 T01240119  RH  097%=      5-min Rain = 0
KEA1 241052Z 32003KT 13/12 A2999 RMK A01 T01250120  RH  097%=      5-min Rain = 0
KEA1 241053Z 31004KT 13/12 A2999 RMK A01 T01260122  RH  097%=      5-min Rain = 0
KEA1 241054Z 30004KT 13/12 A2999 RMK A01 T01270122  RH  097%=      5-min Rain = 0
KEA1 241055Z 30003KT 13/12 A2999 RMK A01 T01270123  RH  097%=      5-min Rain = 0
KEA1 241056Z 30001KT 13/12 A2999 RMK A01 T01270123  RH  097%=      5-min Rain = 0
KEA1 241057Z 32001KT 13/12 A2999 RMK A01 T01280123  RH  097%=      5-min Rain = 0
KEA1 241058Z 32001KT 13/12 A2999 RMK A01 T01280124  RH  097%=      5-min Rain = 0
KEA1 241059Z 33002KT 13/12 A2999 RMK A01 T01280123  RH  097%=      5-min Rain = 0
KEA1 241100Z 33002KT 13/12 A2999 RMK A01 T01280123  RH  097%=      5-min Rain = 0
KEA1 241101Z 33003KT 13/12 A2999 RMK A01 T01280123  RH  097%=      5-min Rain = 0
KEA1 241102Z 34003KT 13/12 A2999 RMK A01 T01280123  RH  097%=      5-min Rain = 0
KEA1 241103Z 00002KT 13/12 A2999 RMK A01 T01280122  RH  097%=      5-min Rain = 0
KEA1 241104Z 05002KT 13/12 A2999 RMK A01 T01280122  RH  096%=      5-min Rain = 0
KEA1 241105Z 06003KT 13/12 A2999 RMK A01 T01270122  RH  096%=      5-min Rain = 0
KEA1 241106Z 04003KT 13/12 A2999 RMK A01 T01270121  RH  096%=      5-min Rain = 0
KEA1 241107Z 04003KT 13/12 A2999 RMK A01 T01270122  RH  097%=      5-min Rain = 0
KEA1 241108Z 04002KT 13/12 A2999 RMK A01 T01270122  RH  097%=      5-min Rain = 0
KEA1 241109Z 04001KT 13/12 A2999 RMK A01 T01280123  RH  097%=      5-min Rain = 0
KEA1 241110Z 04000KT 13/12 A2999 RMK A01 T01280123  RH  097%=      5-min Rain = 0
KEA1 241111Z 00000KT 13/12 A2999 RMK A01 T01280124  RH  097%=      5-min Rain = 0
KEA1 241112Z 34000KT 13/12 A2999 RMK A01 T01290124  RH  097%=      5-min Rain = 0
KEA1 241113Z 34000KT 13/12 A30 RMK A01 T01290124  RH  097%=      5-min Rain = 0
KEA1 241114Z 00000KT 13/12 A30 RMK A01 T01290124  RH  097%=      5-min Rain = 0
KEA1 241115Z 01001KT 13/12 A30 RMK A01 T01290124  RH  097%=      5-min Rain = 0
KEA1 241116Z 02001KT 13/12 A30 RMK A01 T01290124  RH  097%=      5-min Rain = 0
KEA1 241117Z 05001KT 13/12 A30 RMK A01 T01290124  RH  097%=      5-min Rain = 0
KEA1 241118Z 07002KT 13/12 A30 RMK A01 T01290124  RH  097%=      5-min Rain = 0
KEA1 241119Z 07004KT 13/12 A30 RMK A01 T01290124  RH  097%=      5-min Rain = 0
KEA1 241120Z 07004KT 13/12 A30 RMK A01 T01290123  RH  096%=      5-min Rain = 0
KEA1 241121Z 08004KT 13/12 A30 RMK A01 T01280123  RH  096%=      5-min Rain = 0
KEA1 241122Z 08003KT 13/12 A30 RMK A01 T01280122  RH  096%=      5-min Rain = 0
KEA1 241123Z 08002KT 13/12 A30 RMK A01 T01280122  RH  096%=      5-min Rain = 0
KEA1 241124Z 07000KT 13/12 A30 RMK A01 T01280123  RH  096%=      5-min Rain = 0
KEA1 241125Z 00000KT 13/12 A30 RMK A01 T01280122  RH  096%=      5-min Rain = 0
KEA1 241126Z 00000KT 13/12 A30 RMK A01 T01280122  RH  096%=      5-min Rain = 0
KEA1 241127Z 00000KT 13/12 A30 RMK A01 T01280122  RH  096%=      5-min Rain = 0
KEA1 241128Z 05001KT 13/12 A30 RMK A01 T01280122  RH  096%=      5-min Rain = 0
KEA1 241129Z 08002KT 13/12 A30 RMK A01 T01270122  RH  096%=      5-min Rain = 0
KEA1 241130Z 08001KT 13/12 A30 RMK A01 T01270122  RH  096%=      5-min Rain = 0
KEA1 241131Z 35000KT 13/12 A30 RMK A01 T01270122  RH  096%=      5-min Rain = 0
KEA1 241132Z 29001KT 13/12 A30 RMK A01 T01270122  RH  096%=      5-min Rain = 0
KEA1 241133Z 29000KT 13/12 A30 RMK A01 T01270121  RH  096%=      5-min Rain = 0
KEA1 241134Z 12000KT 13/12 A30 RMK A01 T01260121  RH  096%=      5-min Rain = 0
KEA1 241135Z 12000KT 13/12 A30 RMK A01 T01260120  RH  096%=      5-min Rain = 0
KEA1 241136Z 00000KT 13/12 A30 RMK A01 T01260120  RH  096%=      5-min Rain = 0
KEA1 241137Z 00000KT 13/12 A30 RMK A01 T01260121  RH  097%=      5-min Rain = 0
KEA1 241138Z 27000KT 13/12 A30 RMK A01 T01260121  RH  097%=      5-min Rain = 0
KEA1 241139Z 27000KT 13/12 A30 RMK A01 T01270121  RH  097%=      5-min Rain = 0
KEA1 241140Z 13001KT 13/12 A30 RMK A01 T01260121  RH  097%=      5-min Rain = 0
KEA1 241141Z 12003KT 13/12 A30 RMK A01 T01270121  RH  096%=      5-min Rain = 0
KEA1 241142Z 12003KT 13/12 A30 RMK A01 T01270121  RH  096%=      5-min Rain = 0
KEA1 241143Z 12002KT 13/12 A30 RMK A01 T01260121  RH  097%=      5-min Rain = 0
KEA1 241144Z 12000KT 13/12 A30 RMK A01 T01270122  RH  097%=      5-min Rain = 0
KEA1 241145Z 32001KT 13/12 A30 RMK A01 T01270123  RH  097%=      5-min Rain = 0
KEA1 241146Z 32002KT 13/12 A30 RMK A01 T01280123  RH  097%=      5-min Rain = 0
KEA1 241147Z 32001KT 13/12 A30 RMK A01 T01280123  RH  097%=      5-min Rain = 0
KEA1 241148Z 32001KT 13/12 A30 RMK A01 T01280123  RH  097%=      5-min Rain = 0
KEA1 241149Z 03001KT 13/12 A30 RMK A01 T01280122  RH  097%=      5-min Rain = 0
KEA1 241150Z 02001KT 13/12 A30 RMK A01 T01280122  RH  097%=      5-min Rain = 0
KEA1 241151Z 33001KT 13/12 A30 RMK A01 T01270122  RH  097%=      5-min Rain = 0
KEA1 241152Z 33001KT 13/12 A30 RMK A01 T01280122  RH  097%=      5-min Rain = 0
KEA1 241153Z 33001KT 13/12 A30 RMK A01 T01280123  RH  097%=      5-min Rain = 0
KEA1 241154Z 33000KT 13/12 A30 RMK A01 T01280122  RH  097%=      5-min Rain = 0
KEA1 241155Z 00000KT 13/12 A30 RMK A01 T01270122  RH  096%=      5-min Rain = 0
KEA1 241156Z 29000KT 13/12 A30 RMK A01 T01270121  RH  096%=      5-min Rain = 0
KEA1 241157Z 09002KT 13/12 A30 RMK A01 T01270122  RH  097%=      5-min Rain = 0
KEA1 241158Z 09002KT 13/12 A30 RMK A01 T01260121  RH  096%=      5-min Rain = 0
KEA1 241159Z 09001KT 13/12 A30 RMK A01 T01260120  RH  096%=      5-min Rain = 0
KEA1 241200Z 08000KT 13/12 A30 RMK A01 T01260121  RH  097%=      5-min Rain = 0
KEA1 241201Z 29000KT 13/12 A30 RMK A01 T01270121  RH  097%=      5-min Rain = 0
KEA1 241202Z 29001KT 13/12 A30 RMK A01 T01270122  RH  097%=      5-min Rain = 0
KEA1 241203Z 29000KT 13/12 A30 RMK A01 T01260120  RH  096%=      5-min Rain = 0
KEA1 241204Z 00000KT 13/12 A30 RMK A01 T01250119  RH  096%=      5-min Rain = 0
KEA1 241205Z 00000KT 12/12 A30 RMK A01 T01240118  RH  096%=      5-min Rain = 0
KEA1 241206Z 00000KT 13/12 A30 RMK A01 T01250120  RH  097%=      5-min Rain = 0
KEA1 241207Z 00000KT 13/12 A30 RMK A01 T01270122  RH  097%=      5-min Rain = 0
KEA1 241208Z 00000KT 13/12 A3001 RMK A01 T01290124  RH  097%=      5-min Rain = 0
KEA1 241209Z 00000KT 13/12 A3001 RMK A01 T01290124  RH  097%=      5-min Rain = 0
KEA1 241210Z 23001KT 13/12 A3001 RMK A01 T01270121  RH  096%=      5-min Rain = 0
KEA1 241211Z 23001KT 12/12 A3001 RMK A01 T01240116  RH  095%=      5-min Rain = 0
KEA1 241212Z 20001KT 12/12 A3001 RMK A01 T01220115  RH  095%=      5-min Rain = 0
KEA1 241213Z 15001KT 12/12 A3001 RMK A01 T01230116  RH  096%=      5-min Rain = 0
KEA1 241214Z 15000KT 12/12 A3001 RMK A01 T01230117  RH  096%=      5-min Rain = 0
KEA1 241215Z 00000KT 13/12 A3001 RMK A01 T01260121  RH  097%=      5-min Rain = 0
KEA1 241216Z 26001KT 13/12 A3001 RMK A01 T01290124  RH  097%=      5-min Rain = 0
KEA1 241217Z 26002KT 13/12 A3001 RMK A01 T01290123  RH  096%=      5-min Rain = 0
KEA1 241218Z 25002KT 13/12 A3001 RMK A01 T01280121  RH  096%=      5-min Rain = 0
KEA1 241219Z 23002KT 13/12 A3001 RMK A01 T01270120  RH  096%=      5-min Rain = 0
KEA1 241220Z 18001KT 13/12 A3001 RMK A01 T01270121  RH  096%=      5-min Rain = 0
KEA1 241221Z 15002KT 13/12 A3001 RMK A01 T01270121  RH  096%=      5-min Rain = 0
KEA1 241222Z 14003KT 13/12 A3001 RMK A01 T01270121  RH  096%=      5-min Rain = 0
KEA1 241223Z 13003KT 13/12 A3001 RMK A01 T01270122  RH  096%=      5-min Rain = 0
KEA1 241224Z 11005KT 13/12 A3002 RMK A01 T01280123  RH  096%=      5-min Rain = 0
KEA1 241225Z 11005KT 13/12 A3002 RMK A01 T01290123  RH  096%=      5-min Rain = 0
KEA1 241226Z 10005KT 13/12 A3002 RMK A01 T01290123  RH  096%=      5-min Rain = 0
KEA1 241227Z 11003KT 13/12 A3002 RMK A01 T01290124  RH  097%=      5-min Rain = 0
KEA1 241228Z 13002KT 13/13 A3001 RMK A01 T01300125  RH  097%=      5-min Rain = 0
KEA1 241229Z 14001KT 13/13 A3001 RMK A01 T01310126  RH  097%=      5-min Rain = 0
KEA1 241230Z 14001KT 13/13 A3001 RMK A01 T01310126  RH  097%=      5-min Rain = 0
KEA1 241231Z 13002KT 13/13 A3001 RMK A01 T01310126  RH  097%=      5-min Rain = 0
KEA1 241232Z 11002KT 13/13 A3001 RMK A01 T01320126  RH  097%=      5-min Rain = 0
KEA1 241233Z 11002KT 13/13 A3001 RMK A01 T01330128  RH  097%=      5-min Rain = 0
KEA1 241234Z 11002KT 13/13 A3001 RMK A01 T01330128  RH  097%=      5-min Rain = 0
KEA1 241235Z 11002KT 13/13 A3001 RMK A01 T01330128  RH  097%=      5-min Rain = 0
KEA1 241236Z 11002KT 13/13 A3001 RMK A01 T01330128  RH  096%=      5-min Rain = 0
KEA1 241237Z 11002KT 13/13 A3001 RMK A01 T01330128  RH  096%=      5-min Rain = 0
KEA1 241238Z 10002KT 13/13 A3001 RMK A01 T01340128  RH  096%=      5-min Rain = 0
KEA1 241239Z 10001KT 13/13 A3001 RMK A01 T01340128  RH  096%=      5-min Rain = 0
KEA1 241240Z 10001KT 13/13 A3001 RMK A01 T01340128  RH  096%=      5-min Rain = 0
KEA1 241241Z 09001KT 13/13 A3001 RMK A01 T01340129  RH  096%=      5-min Rain = 0
KEA1 241242Z 08002KT 13/13 A3001 RMK A01 T01340128  RH  096%=      5-min Rain = 0
KEA1 241243Z 07002KT 13/13 A3001 RMK A01 T01340128  RH  096%=      5-min Rain = 0
KEA1 241244Z 05001KT 14/13 A3001 RMK A01 T01350129  RH  096%=      5-min Rain = 0
KEA1 241245Z 05001KT 14/13 A3001 RMK A01 T01350129  RH  096%=      5-min Rain = 0
KEA1 241246Z 05001KT 14/13 A3001 RMK A01 T01360130  RH  096%=      5-min Rain = 0
KEA1 241247Z 05000KT 14/13 A3001 RMK A01 T01370131  RH  096%=      5-min Rain = 0
KEA1 241248Z 00000KT 14/13 A3001 RMK A01 T01390133  RH  096%=      5-min Rain = 0
KEA1 241249Z 00000KT 14/13 A3001 RMK A01 T01410134  RH  096%=      5-min Rain = 0
KEA1 241250Z 14000KT 14/14 A3001 RMK A01 T01420135  RH  095%=      5-min Rain = 0
KEA1 241251Z 15001KT 14/13 A3001 RMK A01 T01420133  RH  094%=      5-min Rain = 0
KEA1 241252Z 13001KT 14/13 A3001 RMK A01 T01430134  RH  094%=      5-min Rain = 0
KEA1 241253Z 13000KT 15/14 A3001 RMK A01 T01450135  RH  094%=      5-min Rain = 0
KEA1 241254Z 10001KT 15/14 A3001 RMK A01 T01460136  RH  093%=      5-min Rain = 0
KEA1 241255Z 13003KT 15/14 A3001 RMK A01 T01480136  RH  093%=      5-min Rain = 0
KEA1 241256Z 14003KT 15/14 A3001 RMK A01 T01490136  RH  092%=      5-min Rain = 0
KEA1 241257Z 15002KT 15/14 A3001 RMK A01 T01490136  RH  092%=      5-min Rain = 0
KEA1 241258Z 17001KT 15/14 A3001 RMK A01 T01500136  RH  092%=      5-min Rain = 0
KEA1 241259Z 20001KT 15/14 A3001 RMK A01 T01510137  RH  091%=      5-min Rain = 0
KEA1 241300Z 22002KT 15/14 A3001 RMK A01 T01500136  RH  091%=      5-min Rain = 0
KEA1 241301Z 23002KT 15/14 A3001 RMK A01 T01500136  RH  091%=      5-min Rain = 0
KEA1 241302Z 21001KT 15/14 A3001 RMK A01 T01500136  RH  091%=      5-min Rain = 0
KEA1 241303Z 18001KT 15/14 A3001 RMK A01 T01500135  RH  091%=      5-min Rain = 0
KEA1 241304Z 16001KT 15/14 A3001 RMK A01 T01500136  RH  091%=      5-min Rain = 0
KEA1 241305Z 13002KT 15/14 A3001 RMK A01 T01500136  RH  091%=      5-min Rain = 0
KEA1 241306Z 11001KT 15/14 A3002 RMK A01 T01530138  RH  091%=      5-min Rain = 0
KEA1 241307Z 11002KT 15/14 A3002 RMK A01 T01540139  RH  091%=      5-min Rain = 0
KEA1 241308Z 12003KT 16/14 A3002 RMK A01 T01560139  RH  089%=      5-min Rain = 0
KEA1 241309Z 13003KT 16/14 A3002 RMK A01 T01570138  RH  088%=      5-min Rain = 0
KEA1 241310Z 13001KT 16/14 A3002 RMK A01 T01590140  RH  088%=      5-min Rain = 0
KEA1 241311Z 15001KT 16/14 A3002 RMK A01 T01600138  RH  087%=      5-min Rain = 0
KEA1 241312Z 12002KT 16/14 A3002 RMK A01 T01600135  RH  085%=      5-min Rain = 0
KEA1 241313Z 10003KT 16/14 A3002 RMK A01 T01600136  RH  086%=      5-min Rain = 0
KEA1 241314Z 10002KT 16/14 A3002 RMK A01 T01590136  RH  086%=      5-min Rain = 0
KEA1 241315Z 10001KT 16/14 A3002 RMK A01 T01580135  RH  086%=      5-min Rain = 0
KEA1 241316Z 10002KT 16/14 A3002 RMK A01 T01580137  RH  087%=      5-min Rain = 0
KEA1 241317Z 07001KT 16/14 A3002 RMK A01 T01580137  RH  088%=      5-min Rain = 0
KEA1 241318Z 33001KT 16/14 A3002 RMK A01 T01580136  RH  087%=      5-min Rain = 0
KEA1 241319Z 02000KT 16/14 A3002 RMK A01 T01570135  RH  086%=      5-min Rain = 0
KEA1 241320Z 09002KT 16/14 A3002 RMK A01 T01580137  RH  087%=      5-min Rain = 0
KEA1 241321Z 10002KT 16/14 A3002 RMK A01 T01580139  RH  088%=      5-min Rain = 0
KEA1 241322Z 07002KT 16/14 A3002 RMK A01 T01590137  RH  087%=      5-min Rain = 0
KEA1 241323Z 07002KT 16/14 A3003 RMK A01 T01590138  RH  087%=      5-min Rain = 0
KEA1 241324Z 05002KT 16/14 A3003 RMK A01 T01590138  RH  087%=      5-min Rain = 0
KEA1 241325Z 03003KT 16/14 A3003 RMK A01 T01590138  RH  087%=      5-min Rain = 0
KEA1 241326Z 01004KT 16/14 A3002 RMK A01 T01600138  RH  087%=      5-min Rain = 0
KEA1 241327Z 01005KT 16/14 A3002 RMK A01 T01620137  RH  085%=      5-min Rain = 0
KEA1 241328Z 01006KT 16/14 A3002 RMK A01 T01620136  RH  085%=      5-min Rain = 0
KEA1 241329Z 02005KT 16/14 A3002 RMK A01 T01620137  RH  085%=      5-min Rain = 0
KEA1 241330Z 02005KT 16/14 A3002 RMK A01 T01620137  RH  085%=      5-min Rain = 0
KEA1 241331Z 02005KT 16/14 A3002 RMK A01 T01610136  RH  085%=      5-min Rain = 0
KEA1 241332Z 01004KT 16/14 A3003 RMK A01 T01610139  RH  087%=      5-min Rain = 0
KEA1 241333Z 03004KT 16/14 A3003 RMK A01 T01610141  RH  087%=      5-min Rain = 0
KEA1 241334Z 03004KT 16/14 A3003 RMK A01 T01620140  RH  087%=      5-min Rain = 0
KEA1 241335Z 04003KT 16/14 A3003 RMK A01 T01630142  RH  087%=      5-min Rain = 0
KEA1 241336Z 05003KT 16/14 A3003 RMK A01 T01630140  RH  086%=      5-min Rain = 0
KEA1 241337Z 05002KT 16/14 A3003 RMK A01 T01620140  RH  087%=      5-min Rain = 0
KEA1 241338Z 06002KT 16/14 A3003 RMK A01 T01620139  RH  087%=      5-min Rain = 0
KEA1 241339Z 08001KT 16/14 A3003 RMK A01 T01620139  RH  086%=      5-min Rain = 0
KEA1 241340Z 11001KT 16/14 A3003 RMK A01 T01630137  RH  085%=      5-min Rain = 0
KEA1 241341Z 11001KT 17/14 A3003 RMK A01 T01650136  RH  083%=      5-min Rain = 0
KEA1 241342Z 08001KT 17/14 A3003 RMK A01 T01650137  RH  083%=      5-min Rain = 0
KEA1 241343Z 11001KT 17/14 A3003 RMK A01 T01670140  RH  084%=      5-min Rain = 0
KEA1 241344Z 09001KT 17/14 A3003 RMK A01 T01690139  RH  082%=      5-min Rain = 0
KEA1 241345Z 00000KT 17/14 A3003 RMK A01 T01710135  RH  079%=      5-min Rain = 0
KEA1 241346Z 10000KT 17/14 A3003 RMK A01 T01720136  RH  080%=      5-min Rain = 0
KEA1 241347Z 11001KT 17/14 A3003 RMK A01 T01730136  RH  079%=      5-min Rain = 0
KEA1 241348Z 10000KT 17/13 A3003 RMK A01 T01730134  RH  078%=      5-min Rain = 0
KEA1 241349Z 10001KT 17/14 A3003 RMK A01 T01740135  RH  078%=      5-min Rain = 0
KEA1 241350Z 15000KT 18/14 A3002 RMK A01 T01750137  RH  078%=      5-min Rain = 0
KEA1 241351Z 00000KT 18/14 A3002 RMK A01 T01760136  RH  077%=      5-min Rain = 0
KEA1 241352Z 05000KT 18/14 A3002 RMK A01 T01770137  RH  077%=      5-min Rain = 0
KEA1 241353Z 07000KT 18/14 A3002 RMK A01 T01790135  RH  075%=      5-min Rain = 0
KEA1 241354Z 22000KT 18/14 A3002 RMK A01 T01810136  RH  075%=      5-min Rain = 0
KEA1 241355Z 20001KT 18/13 A3003 RMK A01 T01810134  RH  074%=      5-min Rain = 0
KEA1 241356Z 15001KT 18/14 A3003 RMK A01 T01810135  RH  075%=      5-min Rain = 0
KEA1 241357Z 26000KT 18/14 A3003 RMK A01 T01810136  RH  075%=      5-min Rain = 0
KEA1 241358Z 28001KT 18/14 A3003 RMK A01 T01820135  RH  074%=      5-min Rain = 0
KEA1 241359Z 00000KT 18/14 A3003 RMK A01 T01830135  RH  074%=      5-min Rain = 0
KEA1 241400Z 31000KT 18/13 A3003 RMK A01 T01830134  RH  073%=      5-min Rain = 0
KEA1 241401Z 31000KT 18/13 A3003 RMK A01 T01840134  RH  072%=      5-min Rain = 0
KEA1 241402Z 00000KT 19/13 A3003 RMK A01 T01850133  RH  071%=      5-min Rain = 0
KEA1 241403Z 02000KT 19/13 A3003 RMK A01 T01850133  RH  072%=      5-min Rain = 0
KEA1 241404Z 04000KT 19/14 A3003 RMK A01 T01860135  RH  072%=      5-min Rain = 0
KEA1 241405Z 07000KT 19/13 A3003 RMK A01 T01870132  RH  070%=      5-min Rain = 0
KEA1 241406Z 22000KT 19/14 A3003 RMK A01 T01870135  RH  072%=      5-min Rain = 0
KEA1 241407Z 31000KT 19/13 A3003 RMK A01 T01890133  RH  070%=      5-min Rain = 0
KEA1 241408Z 34000KT 19/13 A3003 RMK A01 T01900133  RH  070%=      5-min Rain = 0
KEA1 241409Z 34001KT 19/14 A3002 RMK A01 T01920136  RH  070%=      5-min Rain = 0
KEA1 241410Z 35001KT 19/14 A3002 RMK A01 T01940136  RH  069%=      5-min Rain = 0
KEA1 241411Z 36000KT 20/14 A3002 RMK A01 T01950138  RH  070%=      5-min Rain = 0
KEA1 241412Z 05000KT 20/14 A3002 RMK A01 T01970138  RH  069%=      5-min Rain = 0
KEA1 241413Z 19001KT 20/14 A3002 RMK A01 T01990136  RH  067%=      5-min Rain = 0
KEA1 241414Z 19002KT 20/14 A3002 RMK A01 T01990136  RH  067%=      5-min Rain = 0
KEA1 241415Z 19001KT 20/13 A3002 RMK A01 T01980134  RH  066%=      5-min Rain = 0
KEA1 241416Z 18002KT 20/13 A3003 RMK A01 T01970133  RH  066%=      5-min Rain = 0
KEA1 241417Z 16002KT 20/13 A3003 RMK A01 T01970133  RH  067%=      5-min Rain = 0
KEA1 241418Z 15002KT 20/13 A3002 RMK A01 T01970134  RH  067%=      5-min Rain = 0
KEA1 241419Z 20001KT 20/14 A3002 RMK A01 T01970135  RH  067%=      5-min Rain = 0
KEA1 241420Z 19001KT 20/14 A3002 RMK A01 T01970136  RH  067%=      5-min Rain = 0
KEA1 241421Z 18002KT 20/14 A3002 RMK A01 T01980136  RH  067%=      5-min Rain = 0
KEA1 241422Z 18002KT 20/14 A3002 RMK A01 T01990136  RH  067%=      5-min Rain = 0
KEA1 241423Z 22002KT 20/14 A3002 RMK A01 T01990136  RH  067%=      5-min Rain = 0
KEA1 241424Z 17002KT 20/14 A3002 RMK A01 T02000139  RH  068%=      5-min Rain = 0
KEA1 241425Z 22002KT 20/14 A3002 RMK A01 T02000139  RH  068%=      5-min Rain = 0
KEA1 241426Z 23004KT 20/14 A3002 RMK A01 T02010138  RH  067%=      5-min Rain = 0
KEA1 241427Z 23004KT 20/14 A3002 RMK A01 T01990136  RH  067%=      5-min Rain = 0
KEA1 241428Z 25003KT 20/14 A3002 RMK A01 T01980136  RH  068%=      5-min Rain = 0
KEA1 241429Z 24002KT 20/14 A3002 RMK A01 T01970136  RH  068%=      5-min Rain = 0
KEA1 241430Z 26002KT 20/14 A3002 RMK A01 T01970137  RH  068%=      5-min Rain = 0
KEA1 241431Z 25002KT 20/14 A3002 RMK A01 T01970138  RH  069%=      5-min Rain = 0
KEA1 241432Z 22002KT 20/14 A3002 RMK A01 T01980140  RH  069%=      5-min Rain = 0
KEA1 241433Z 21002KT 20/14 A3002 RMK A01 T01990139  RH  068%=      5-min Rain = 0
KEA1 241434Z 18001KT 20/14 A3002 RMK A01 T01990138  RH  068%=      5-min Rain = 0
KEA1 241435Z 19001KT 20/14 A3002 RMK A01 T01990140  RH  069%=      5-min Rain = 0
KEA1 241436Z 24002KT 20/14 A3002 RMK A01 T01990142  RH  069%=      5-min Rain = 0
KEA1 241437Z 21002KT 20/14 A3002 RMK A01 T02000140  RH  068%=      5-min Rain = 0
KEA1 241438Z 20004KT 20/14 A3002 RMK A01 T02010141  RH  068%=      5-min Rain = 0
KEA1 241439Z 20005KT 20/14 A3002 RMK A01 T02010140  RH  068%=      5-min Rain = 0
KEA1 241440Z 19005KT 20/14 A3002 RMK A01 T02010140  RH  068%=      5-min Rain = 0
KEA1 241441Z 21003KT 20/14 A3002 RMK A01 T01990139  RH  068%=      5-min Rain = 0
KEA1 241442Z 21005KT 20/14 A3002 RMK A01 T01990141  RH  069%=      5-min Rain = 0
KEA1 241443Z 21005KT 20/14 A3002 RMK A01 T01990140  RH  069%=      5-min Rain = 0
KEA1 241444Z 21005KT 20/14 A3002 RMK A01 T01980140  RH  069%=      5-min Rain = 0
KEA1 241445Z 21005KT 20/14 A3002 RMK A01 T01980141  RH  070%=      5-min Rain = 0
KEA1 241446Z 21003KT 20/14 A3002 RMK A01 T01980141  RH  070%=      5-min Rain = 0
KEA1 241447Z 23003KT 20/14 A3002 RMK A01 T01980142  RH  070%=      5-min Rain = 0
KEA1 241448Z 23004KT 20/15 A3002 RMK A01 T01990145  RH  071%=      5-min Rain = 0
KEA1 241449Z 21003KT 20/14 A3002 RMK A01 T02000143  RH  069%=      5-min Rain = 0
KEA1 241450Z 23003KT 20/14 A3002 RMK A01 T02000144  RH  070%=      5-min Rain = 0
KEA1 241451Z 23002KT 20/15 A3002 RMK A01 T02010145  RH  070%=      5-min Rain = 0
KEA1 241452Z 25002KT 20/15 A3002 RMK A01 T02020146  RH  070%=      5-min Rain = 0
KEA1 241453Z 25002KT 20/15 A3002 RMK A01 T02030145  RH  069%=      5-min Rain = 0
KEA1 241454Z 24002KT 20/14 A3002 RMK A01 T02030144  RH  069%=      5-min Rain = 0
KEA1 241455Z 28002KT 20/14 A3002 RMK A01 T02030144  RH  069%=      5-min Rain = 0
KEA1 241456Z 27001KT 20/14 A3002 RMK A01 T02030144  RH  069%=      5-min Rain = 0
KEA1 241457Z 30002KT 20/15 A3002 RMK A01 T02040145  RH  069%=      5-min Rain = 0
KEA1 241458Z 32001KT 20/14 A3002 RMK A01 T02040144  RH  068%=      5-min Rain = 0
KEA1 241459Z 29000KT 21/15 A3002 RMK A01 T02050145  RH  069%=      5-min Rain = 0
KEA1 241500Z 24000KT 21/15 A3002 RMK A01 T02060146  RH  068%=      5-min Rain = 0
KEA1 241501Z 14001KT 21/15 A3002 RMK A01 T02080149  RH  069%=      5-min Rain = 0
KEA1 241502Z 21002KT 21/15 A3002 RMK A01 T02090150  RH  069%=      5-min Rain = 0
KEA1 241503Z 23002KT 21/15 A3002 RMK A01 T02100148  RH  067%=      5-min Rain = 0
KEA1 241504Z 22002KT 21/15 A3002 RMK A01 T02110150  RH  068%=      5-min Rain = 0
KEA1 241505Z 22003KT 21/15 A3002 RMK A01 T02120148  RH  067%=      5-min Rain = 0
KEA1 241506Z 20004KT 21/15 A3002 RMK A01 T02120149  RH  067%=      5-min Rain = 0
KEA1 241507Z 20004KT 21/15 A3002 RMK A01 T02120149  RH  067%=      5-min Rain = 0
KEA1 241508Z 19003KT 21/15 A3002 RMK A01 T02130149  RH  067%=      5-min Rain = 0
KEA1 241509Z 20003KT 21/15 A3002 RMK A01 T02140148  RH  066%=      5-min Rain = 0
KEA1 241510Z 20005KT 21/15 A3002 RMK A01 T02140149  RH  066%=      5-min Rain = 0
KEA1 241511Z 19004KT 21/15 A3002 RMK A01 T02140154  RH  068%=      5-min Rain = 0
KEA1 241512Z 19004KT 22/15 A3002 RMK A01 T02160152  RH  067%=      5-min Rain = 0
KEA1 241513Z 21002KT 22/15 A3002 RMK A01 T02180152  RH  066%=      5-min Rain = 0
KEA1 241514Z 16003KT 22/15 A3002 RMK A01 T02180151  RH  066%=      5-min Rain = 0
KEA1 241515Z 17003KT 22/15 A3002 RMK A01 T02190150  RH  065%=      5-min Rain = 0
KEA1 241516Z 15005KT 22/15 A3002 RMK A01 T02190152  RH  066%=      5-min Rain = 0
KEA1 241517Z 18003KT 22/15 A3002 RMK A01 T02190154  RH  067%=      5-min Rain = 0
KEA1 241518Z 19004KT 22/15 A3002 RMK A01 T02200152  RH  065%=      5-min Rain = 0
KEA1 241519Z 19003KT 22/15 A3002 RMK A01 T02190152  RH  066%=      5-min Rain = 0
KEA1 241520Z 19002KT 22/15 A3002 RMK A01 T02170151  RH  066%=      5-min Rain = 0
KEA1 241521Z 23003KT 22/15 A3002 RMK A01 T02160151  RH  066%=      5-min Rain = 0
KEA1 241522Z 24005KT 22/15 A3002 RMK A01 T02150150  RH  066%=      5-min Rain = 0
KEA1 241523Z 26004KT 21/15 A3002 RMK A01 T02130149  RH  067%=      5-min Rain = 0
KEA1 241524Z 26002KT 21/15 A3002 RMK A01 T02110149  RH  068%=      5-min Rain = 0
KEA1 241525Z 26002KT 21/15 A3002 RMK A01 T02110150  RH  068%=      5-min Rain = 0
KEA1 241526Z 24002KT 21/15 A3002 RMK A01 T02120151  RH  068%=      5-min Rain = 0
KEA1 241527Z 18003KT 21/15 A3002 RMK A01 T02140153  RH  068%=      5-min Rain = 0
KEA1 241528Z 19003KT 22/16 A3002 RMK A01 T02170155  RH  068%=      5-min Rain = 0
KEA1 241529Z 17003KT 22/15 A3002 RMK A01 T02180153  RH  066%=      5-min Rain = 0
KEA1 241530Z 19002KT 22/15 A3002 RMK A01 T02200154  RH  066%=      5-min Rain = 0
KEA1 241531Z 22001KT 22/15 A3002 RMK A01 T02200151  RH  065%=      5-min Rain = 0
KEA1 241532Z 22000KT 22/15 A3002 RMK A01 T02210152  RH  065%=      5-min Rain = 0
KEA1 241533Z 34000KT 22/15 A3002 RMK A01 T02210153  RH  065%=      5-min Rain = 0
KEA1 241534Z 07001KT 22/15 A3002 RMK A01 T02210154  RH  066%=      5-min Rain = 0
KEA1 241535Z 09002KT 22/16 A3002 RMK A01 T02220156  RH  066%=      5-min Rain = 0
KEA1 241536Z 05001KT 22/15 A3002 RMK A01 T02230153  RH  064%=      5-min Rain = 0
KEA1 241537Z 35001KT 22/15 A3002 RMK A01 T02230152  RH  064%=      5-min Rain = 0
KEA1 241538Z 25002KT 22/16 A3002 RMK A01 T02230155  RH  065%=      5-min Rain = 0
KEA1 241539Z 22005KT 22/16 A3002 RMK A01 T02240158  RH  066%=      5-min Rain = 0
KEA1 241540Z 19001KT 22/16 A3002 RMK A01 T02240157  RH  066%=      5-min Rain = 0
KEA1 241541Z 24002KT 23/16 A3002 RMK A01 T02250157  RH  066%=      5-min Rain = 0
KEA1 241542Z 20007G12KT 23/16 A3002 RMK A01 T02260160  RH  066%=      5-min Rain = 0
KEA1 241543Z 15006KT 23/17 A3002 RMK A01 T02290165  RH  067%=      5-min Rain = 0
KEA1 241544Z 16005KT 23/16 A3002 RMK A01 T02330161  RH  064%=      5-min Rain = 0
KEA1 241545Z 18003KT 23/16 A3002 RMK A01 T02310157  RH  063%=      5-min Rain = 0
KEA1 241546Z 14002KT 23/16 A3002 RMK A01 T02280157  RH  064%=      5-min Rain = 0
KEA1 241547Z 19004KT 23/16 A3002 RMK A01 T02270159  RH  065%=      5-min Rain = 0
KEA1 241548Z 20005KT 23/16 A3002 RMK A01 T02290158  RH  064%=      5-min Rain = 0
KEA1 241549Z 19006KT 23/16 A3002 RMK A01 T02290160  RH  065%=      5-min Rain = 0
KEA1 241550Z 17007KT 23/16 A3002 RMK A01 T02290159  RH  065%=      5-min Rain = 0
KEA1 241551Z 17006KT 23/16 A3002 RMK A01 T02290160  RH  065%=      5-min Rain = 0
KEA1 241552Z 16006KT 23/16 A3002 RMK A01 T02290159  RH  065%=      5-min Rain = 0
KEA1 241553Z 17005KT 23/16 A3002 RMK A01 T02280156  RH  064%=      5-min Rain = 0
KEA1 241554Z 14003KT 23/16 A3002 RMK A01 T02260156  RH  064%=      5-min Rain = 0
KEA1 241555Z 15004KT 23/16 A3002 RMK A01 T02270159  RH  065%=      5-min Rain = 0
KEA1 241556Z 16006KT 23/16 A3002 RMK A01 T02310158  RH  064%=      5-min Rain = 0
KEA1 241557Z 18003KT 23/16 A3002 RMK A01 T02310159  RH  064%=      5-min Rain = 0
KEA1 241558Z 16002KT 23/16 A3002 RMK A01 T02310158  RH  063%=      5-min Rain = 0
KEA1 241559Z 14002KT 23/16 A3002 RMK A01 T02310158  RH  064%=      5-min Rain = 0
KEA1 241600Z 14002KT 23/16 A3002 RMK A01 T02300158  RH  064%=      5-min Rain = 0
KEA1 241601Z 16002KT 23/16 A3002 RMK A01 T02310161  RH  065%=      5-min Rain = 0
KEA1 241602Z 18003KT 23/16 A3002 RMK A01 T02320160  RH  064%=      5-min Rain = 0
KEA1 241603Z 20004KT 23/16 A3002 RMK A01 T02310160  RH  064%=      5-min Rain = 0
KEA1 241604Z 17004G9KT 23/16 A3002 RMK A01 T02280160  RH  065%=      5-min Rain = 0
KEA1 241605Z 14009KT 23/16 A3002 RMK A01 T02280163  RH  067%=      5-min Rain = 0
KEA1 241606Z 16007KT 23/17 A3002 RMK A01 T02300165  RH  067%=      5-min Rain = 0
KEA1 241607Z 17005KT 23/16 A3002 RMK A01 T02320162  RH  065%=      5-min Rain = 0
KEA1 241608Z 15006KT 23/17 A3002 RMK A01 T02340166  RH  066%=      5-min Rain = 0
KEA1 241609Z 17006KT 24/17 A3002 RMK A01 T02360165  RH  064%=      5-min Rain = 0
KEA1 241610Z 16004KT 24/16 A3002 RMK A01 T02370164  RH  064%=      5-min Rain = 0
KEA1 241611Z 18005KT 24/16 A3002 RMK A01 T02360163  RH  064%=      5-min Rain = 0
KEA1 241612Z 18005KT 23/16 A3002 RMK A01 T02340164  RH  064%=      5-min Rain = 0
KEA1 241613Z 19001KT 23/16 A3002 RMK A01 T02340162  RH  064%=      5-min Rain = 0
KEA1 241614Z 17007KT 23/16 A3002 RMK A01 T02330162  RH  064%=      5-min Rain = 0
KEA1 241615Z 16006KT 23/16 A3002 RMK A01 T02310162  RH  065%=      5-min Rain = 0
KEA1 241616Z 15005KT 23/16 A3002 RMK A01 T02300162  RH  066%=      5-min Rain = 0
KEA1 241617Z 16005KT 23/16 A3002 RMK A01 T02290162  RH  066%=      5-min Rain = 0
KEA1 241618Z 15009KT 23/17 A3002 RMK A01 T02300166  RH  067%=      5-min Rain = 0
KEA1 241619Z 15010KT 23/16 A3002 RMK A01 T02340164  RH  065%=      5-min Rain = 0
KEA1 241620Z 16007KT 24/16 A3002 RMK A01 T02350162  RH  063%=      5-min Rain = 0
KEA1 241621Z 16005KT 24/16 A3002 RMK A01 T02350161  RH  063%=      5-min Rain = 0
KEA1 241622Z 15007KT 24/16 A3002 RMK A01 T02350162  RH  064%=      5-min Rain = 0
KEA1 241623Z 14006KT 24/16 A3002 RMK A01 T02350159  RH  062%=      5-min Rain = 0
KEA1 241624Z 13004KT 24/16 A3002 RMK A01 T02350158  RH  062%=      5-min Rain = 0
KEA1 241625Z 13003KT 24/16 A3002 RMK A01 T02350159  RH  063%=      5-min Rain = 0
KEA1 241626Z 13005KT 24/16 A3002 RMK A01 T02350161  RH  063%=      5-min Rain = 0
KEA1 241627Z 12003KT 24/16 A3002 RMK A01 T02360160  RH  062%=      5-min Rain = 0
KEA1 241628Z 20004KT 24/16 A3002 RMK A01 T02370163  RH  063%=      5-min Rain = 0
KEA1 241629Z 19006KT 24/16 A3002 RMK A01 T02390163  RH  062%=      5-min Rain = 0
KEA1 241630Z 20007KT 24/17 A3002 RMK A01 T02410167  RH  063%=      5-min Rain = 0
KEA1 241631Z 20007KT 24/16 A3002 RMK A01 T02440164  RH  061%=      5-min Rain = 0
KEA1 241632Z 23005KT 24/16 A3002 RMK A01 T02410161  RH  061%=      5-min Rain = 0
KEA1 241633Z 19006KT 24/16 A3002 RMK A01 T02380163  RH  063%=      5-min Rain = 0
KEA1 241634Z 17005KT 24/16 A3002 RMK A01 T02410163  RH  062%=      5-min Rain = 0
KEA1 241635Z 17006KT 24/16 A3002 RMK A01 T02410163  RH  062%=      5-min Rain = 0
KEA1 241636Z 18005KT 24/16 A3002 RMK A01 T02390160  RH  061%=      5-min Rain = 0
KEA1 241637Z 17005KT 24/16 A3002 RMK A01 T02370158  RH  061%=      5-min Rain = 0
KEA1 241638Z 18006KT 23/16 A3002 RMK A01 T02340156  RH  061%=      5-min Rain = 0
KEA1 241639Z 17005KT 23/15 A3002 RMK A01 T02320154  RH  061%=      5-min Rain = 0
KEA1 241640Z 15003KT 23/16 A3002 RMK A01 T02310157  RH  063%=      5-min Rain = 0
KEA1 241641Z 18006KT 23/16 A3002 RMK A01 T02330157  RH  062%=      5-min Rain = 0
KEA1 241642Z 16005KT 24/16 A3002 RMK A01 T02360156  RH  061%=      5-min Rain = 0
KEA1 241643Z 15005KT 24/16 A3002 RMK A01 T02420158  RH  060%=      5-min Rain = 0
KEA1 241644Z 13003KT 25/16 A3002 RMK A01 T02450155  RH  057%=      5-min Rain = 0
KEA1 241645Z 11001KT 25/16 A3002 RMK A01 T02460156  RH  057%=      5-min Rain = 0
KEA1 241646Z 15002G7KT 25/16 A3002 RMK A01 T02470155  RH  057%=      5-min Rain = 0
KEA1 241647Z 16006KT 25/15 A3002 RMK A01 T02490153  RH  055%=      5-min Rain = 0
KEA1 241648Z 18006KT 25/15 A3002 RMK A01 T02490150  RH  054%=      5-min Rain = 0
KEA1 241649Z 19005KT 24/14 A3002 RMK A01 T02440144  RH  054%=      5-min Rain = 0
KEA1 241650Z 16004KT 24/15 A3002 RMK A01 T02400149  RH  057%=      5-min Rain = 0
KEA1 241651Z 16003KT 24/15 A3002 RMK A01 T02410149  RH  056%=      5-min Rain = 0
KEA1 241652Z 19001KT 24/15 A3002 RMK A01 T02410149  RH  056%=      5-min Rain = 0
KEA1 241653Z 01001KT 24/15 A3002 RMK A01 T02410149  RH  056%=      5-min Rain = 0
KEA1 241654Z 32002KT 24/15 A3002 RMK A01 T02430151  RH  057%=      5-min Rain = 0
KEA1 241655Z 27000KT 24/15 A3002 RMK A01 T02440151  RH  056%=      5-min Rain = 0
KEA1 241656Z 12003KT 24/15 A3002 RMK A01 T02440153  RH  057%=      5-min Rain = 0
KEA1 241657Z 12006KT 25/15 A3002 RMK A01 T02480152  RH  055%=      5-min Rain = 0
KEA1 241658Z 13004KT 25/16 A3002 RMK A01 T02500155  RH  056%=      5-min Rain = 0
KEA1 241659Z 07002KT 25/15 A3002 RMK A01 T02520153  RH  054%=      5-min Rain = 0
KEA1 241700Z 12006KT 25/16 A3002 RMK A01 T02520157  RH  056%=      5-min Rain = 0
KEA1 241701Z 10005KT 26/16 A3002 RMK A01 T02560157  RH  054%=      5-min Rain = 0
KEA1 241702Z 12006KT 26/16 A3002 RMK A01 T02590157  RH  053%=      5-min Rain = 0
KEA1 241703Z 14006KT 26/15 A3002 RMK A01 T02580153  RH  052%=      5-min Rain = 0
KEA1 241704Z 14003KT 25/15 A3002 RMK A01 T02530152  RH  054%=      5-min Rain = 0
KEA1 241705Z 15004G10KT 25/15 A3002 RMK A01 T02490154  RH  055%=      5-min Rain = 0
KEA1 241706Z 16007KT 25/16 A3002 RMK A01 T02500156  RH  056%=      5-min Rain = 0
KEA1 241707Z 18005KT 25/16 A3002 RMK A01 T02510156  RH  055%=      5-min Rain = 0
KEA1 241708Z 16005KT 25/16 A3002 RMK A01 T02520155  RH  055%=      5-min Rain = 0
KEA1 241709Z 15006KT 25/16 A3002 RMK A01 T02510156  RH  055%=      5-min Rain = 0
KEA1 241710Z 15005KT 25/16 A3002 RMK A01 T02480156  RH  056%=      5-min Rain = 0
KEA1 241711Z 17002KT 25/16 A3002 RMK A01 T02480156  RH  057%=      5-min Rain = 0
KEA1 241712Z 08000KT 25/16 A3002 RMK A01 T02480158  RH  057%=      5-min Rain = 0
KEA1 241713Z 14001KT 25/16 A3002 RMK A01 T02520161  RH  057%=      5-min Rain = 0
KEA1 241714Z 18002KT 26/16 A3002 RMK A01 T02560158  RH  055%=      5-min Rain = 0
KEA1 241715Z 19004KT 26/16 A3001 RMK A01 T02570158  RH  054%=      5-min Rain = 0
KEA1 241716Z 23004KT 26/16 A3001 RMK A01 T02580157  RH  054%=      5-min Rain = 0
KEA1 241717Z 20003KT 26/15 A3001 RMK A01 T02560153  RH  053%=      5-min Rain = 0
KEA1 241718Z 19002KT 25/16 A3001 RMK A01 T02540155  RH  054%=      5-min Rain = 0
KEA1 241719Z 15006G11KT 26/16 A3001 RMK A01 T02550156  RH  054%=      5-min Rain = 0
KEA1 241720Z 16009KT 26/15 A3001 RMK A01 T02560154  RH  053%=      5-min Rain = 0
KEA1 241721Z 14007KT 26/15 A3001 RMK A01 T02560152  RH  053%=      5-min Rain = 0
KEA1 241722Z 15005KT 25/15 A3001 RMK A01 T02540151  RH  053%=      5-min Rain = 0
KEA1 241723Z 16007KT 25/15 A3001 RMK A01 T02530149  RH  053%=      5-min Rain = 0
KEA1 241724Z 16009KT 26/15 A3001 RMK A01 T02550149  RH  052%=      5-min Rain = 0
KEA1 241725Z 17006KT 26/15 A3001 RMK A01 T02570145  RH  050%=      5-min Rain = 0
KEA1 241726Z 17007KT 26/14 A3001 RMK A01 T02560144  RH  050%=      5-min Rain = 0
KEA1 241727Z 16006KT 26/14 A3001 RMK A01 T02560139  RH  048%=      5-min Rain = 0
KEA1 241728Z 12005KT 26/15 A3001 RMK A01 T02600154  RH  052%=      5-min Rain = 0
KEA1 241729Z 11004KT 26/15 A3001 RMK A01 T02640154  RH  051%=      5-min Rain = 0
KEA1 241730Z 08003KT 27/15 A3001 RMK A01 T02660147  RH  048%=      5-min Rain = 0
KEA1 241731Z 10002KT 26/15 A3001 RMK A01 T02610147  RH  049%=      5-min Rain = 0
KEA1 241732Z 13002KT 26/15 A3001 RMK A01 T02580150  RH  051%=      5-min Rain = 0
KEA1 241733Z 17003KT 26/15 A3001 RMK A01 T02580148  RH  051%=      5-min Rain = 0
KEA1 241734Z 17006KT 26/14 A3001 RMK A01 T02590143  RH  049%=      5-min Rain = 0
KEA1 241735Z 13004KT 26/15 A3001 RMK A01 T02620152  RH  051%=      5-min Rain = 0
KEA1 241736Z 14006KT 26/15 A3001 RMK A01 T02640152  RH  050%=      5-min Rain = 0
KEA1 241737Z 17003KT 26/15 A3001 RMK A01 T02640152  RH  050%=      5-min Rain = 0
KEA1 241738Z 18004KT 26/15 A3001 RMK A01 T02610153  RH  051%=      5-min Rain = 0
KEA1 241739Z 17004KT 26/15 A3001 RMK A01 T02600151  RH  051%=      5-min Rain = 0
KEA1 241740Z 15006KT 26/15 A3001 RMK A01 T02580149  RH  051%=      5-min Rain = 0
KEA1 241741Z 14007KT 26/15 A3001 RMK A01 T02600153  RH  052%=      5-min Rain = 0
KEA1 241742Z 13004KT 27/15 A3001 RMK A01 T02650152  RH  050%=      5-min Rain = 0
KEA1 241743Z 12005KT 26/15 A3001 RMK A01 T02630151  RH  050%=      5-min Rain = 0
KEA1 241744Z 12009KT 26/15 A3001 RMK A01 T02630145  RH  048%=      5-min Rain = 0
KEA1 241745Z 12006KT 26/14 A3001 RMK A01 T02640138  RH  046%=      5-min Rain = 0
KEA1 241746Z 12004KT 26/14 A3001 RMK A01 T02630137  RH  046%=      5-min Rain = 0
KEA1 241747Z 10003KT 26/14 A3001 RMK A01 T02620139  RH  047%=      5-min Rain = 0
KEA1 241748Z 36002KT 26/14 A30 RMK A01 T02620136  RH  046%=      5-min Rain = 0
KEA1 241749Z 22001KT 26/14 A30 RMK A01 T02640139  RH  046%=      5-min Rain = 0
KEA1 241750Z 14004KT 27/14 A30 RMK A01 T02660139  RH  046%=      5-min Rain = 0
KEA1 241751Z 12006KT 27/14 A30 RMK A01 T02690141  RH  045%=      5-min Rain = 0
KEA1 241752Z 12006KT 27/14 A30 RMK A01 T02690140  RH  045%=      5-min Rain = 0
KEA1 241753Z 12005KT 27/14 A30 RMK A01 T02690136  RH  044%=      5-min Rain = 0
KEA1 241754Z 15005KT 27/14 A30 RMK A01 T02670138  RH  045%=      5-min Rain = 0
KEA1 241755Z 15007KT 27/14 A30 RMK A01 T02660140  RH  046%=      5-min Rain = 0
KEA1 241756Z 15008KT 27/14 A30 RMK A01 T02670138  RH  045%=      5-min Rain = 0
KEA1 241757Z 14009KT 27/14 A30 RMK A01 T02660138  RH  045%=      5-min Rain = 0
KEA1 241758Z 13007KT 27/13 A30 RMK A01 T02660134  RH  044%=      5-min Rain = 0
KEA1 241759Z 14008KT 27/14 A30 RMK A01 T02650140  RH  046%=      5-min Rain = 0
KEA1 241800Z 13006KT 27/14 A30 RMK A01 T02670141  RH  046%=      5-min Rain = 0
KEA1 241801Z 13006KT 27/14 A30 RMK A01 T02670141  RH  046%=      5-min Rain = 0
KEA1 241802Z 12007KT 27/14 A30 RMK A01 T02690139  RH  045%=      5-min Rain = 0
KEA1 241803Z 10004KT 27/14 A30 RMK A01 T02680140  RH  045%=      5-min Rain = 0
KEA1 241804Z 11004KT 27/14 A30 RMK A01 T02660139  RH  046%=      5-min Rain = 0
KEA1 241805Z 10004KT 27/14 A30 RMK A01 T02660142  RH  046%=      5-min Rain = 0
KEA1 241806Z 11003KT 27/14 A30 RMK A01 T02680144  RH  047%=      5-min Rain = 0
KEA1 241807Z 18004KT 27/14 A30 RMK A01 T02710140  RH  045%=      5-min Rain = 0
KEA1 241808Z 18008KT 27/12 A2999 RMK A01 T02740119  RH  038%=      5-min Rain = 0
KEA1 241809Z 19007KT 27/12 A2999 RMK A01 T02730120  RH  038%=      5-min Rain = 0
KEA1 241810Z 19006G11KT 27/12 A2999 RMK A01 T02730120  RH  039%=      5-min Rain = 0
KEA1 241811Z 16009KT 27/12 A2999 RMK A01 T02740122  RH  039%=      5-min Rain = 0
KEA1 241812Z 18008KT 27/13 A2999 RMK A01 T02740129  RH  041%=      5-min Rain = 0
KEA1 241813Z 21010KT 28/13 A2999 RMK A01 T02770127  RH  040%=      5-min Rain = 0
KEA1 241814Z 23007KT 27/12 A2999 RMK A01 T02740122  RH  039%=      5-min Rain = 0
KEA1 241815Z 23007KT 27/12 A2999 RMK A01 T02670121  RH  040%=      5-min Rain = 0
KEA1 241816Z 22007KT 27/12 A2999 RMK A01 T02650122  RH  041%=      5-min Rain = 0
KEA1 241817Z 21006KT 27/12 A2999 RMK A01 T02650122  RH  041%=      5-min Rain = 0
KEA1 241818Z 22006G11KT 27/13 A2999 RMK A01 T02660128  RH  042%=      5-min Rain = 0
KEA1 241819Z 16009G15KT 27/13 A2998 RMK A01 T02700131  RH  042%=      5-min Rain = 0
KEA1 241820Z 21005KT 27/13 A2999 RMK A01 T02720128  RH  041%=      5-min Rain = 0
KEA1 241821Z 23004KT 27/13 A2999 RMK A01 T02710126  RH  040%=      5-min Rain = 0
KEA1 241822Z 27004KT 27/12 A2998 RMK A01 T02740124  RH  040%=      5-min Rain = 0
KEA1 241823Z 27004KT 27/12 A2998 RMK A01 T02720124  RH  040%=      5-min Rain = 0
KEA1 241824Z 25003KT 27/13 A2998 RMK A01 T02740129  RH  041%=      5-min Rain = 0
KEA1 241825Z 23007KT 28/13 A2998 RMK A01 T02760125  RH  039%=      5-min Rain = 0
KEA1 241826Z 22008KT 28/13 A2998 RMK A01 T02780126  RH  039%=      5-min Rain = 0
KEA1 241827Z 21006KT 27/12 A2998 RMK A01 T02740122  RH  039%=      5-min Rain = 0
KEA1 241828Z 20004KT 27/12 A2998 RMK A01 T02730120  RH  038%=      5-min Rain = 0
KEA1 241829Z 20004KT 27/12 A2998 RMK A01 T02730118  RH  038%=      5-min Rain = 0
KEA1 241830Z 18004KT 27/12 A2998 RMK A01 T02710115  RH  038%=      5-min Rain = 0
KEA1 241831Z 20001KT 27/11 A2998 RMK A01 T02690114  RH  038%=      5-min Rain = 0
KEA1 241832Z 22003KT 27/12 A2998 RMK A01 T02700117  RH  039%=      5-min Rain = 0
KEA1 241833Z 22006KT 28/12 A2998 RMK A01 T02760115  RH  037%=      5-min Rain = 0
KEA1 241834Z 19006KT 28/12 A2998 RMK A01 T02770115  RH  036%=      5-min Rain = 0
KEA1 241835Z 20009KT 28/12 A2997 RMK A01 T02800116  RH  036%=      5-min Rain = 0
KEA1 241836Z 20006KT 28/11 A2998 RMK A01 T02800110  RH  035%=      5-min Rain = 0
KEA1 241837Z 20005KT 28/11 A2997 RMK A01 T02760112  RH  036%=      5-min Rain = 0
KEA1 241838Z 18004KT 28/11 A2997 RMK A01 T02760114  RH  036%=      5-min Rain = 0
KEA1 241839Z 19005KT 28/12 A2998 RMK A01 T02780116  RH  037%=      5-min Rain = 0
KEA1 241840Z 18006KT 28/12 A2998 RMK A01 T02820119  RH  037%=      5-min Rain = 0
KEA1 241841Z 17007KT 28/11 A2997 RMK A01 T02840112  RH  034%=      5-min Rain = 0
KEA1 241842Z 19005KT 28/11 A2997 RMK A01 T02830112  RH  035%=      5-min Rain = 0
KEA1 241843Z 16006KT 28/12 A2997 RMK A01 T02830116  RH  036%=      5-min Rain = 0
KEA1 241844Z 15005KT 28/11 A2997 RMK A01 T02830114  RH  035%=      5-min Rain = 0
KEA1 241845Z 15006KT 28/11 A2997 RMK A01 T02810112  RH  035%=      5-min Rain = 0
KEA1 241846Z 16005KT 28/11 A2997 RMK A01 T02780111  RH  035%=      5-min Rain = 0
KEA1 241847Z 14003KT 28/11 A2997 RMK A01 T02760110  RH  036%=      5-min Rain = 0
KEA1 241848Z 19003KT 28/11 A2997 RMK A01 T02750114  RH  037%=      5-min Rain = 0
KEA1 241849Z 28005KT 28/11 A2997 RMK A01 T02780113  RH  036%=      5-min Rain = 0
KEA1 241850Z 26005KT 28/11 A2997 RMK A01 T02790106  RH  034%=      5-min Rain = 0
KEA1 241851Z 26003KT 28/11 A2997 RMK A01 T02770105  RH  034%=      5-min Rain = 0
KEA1 241852Z 27008KT 28/11 A2997 RMK A01 T02770113  RH  036%=      5-min Rain = 0
KEA1 241853Z 25009KT 28/11 A2997 RMK A01 T02800111  RH  035%=      5-min Rain = 0
KEA1 241854Z 23008KT 28/11 A2997 RMK A01 T02790110  RH  035%=      5-min Rain = 0
KEA1 241855Z 20008KT 28/12 A2997 RMK A01 T02780117  RH  037%=      5-min Rain = 0
KEA1 241856Z 19008KT 28/12 A2997 RMK A01 T02820118  RH  036%=      5-min Rain = 0
KEA1 241857Z 17006KT 28/12 A2997 RMK A01 T02830115  RH  035%=      5-min Rain = 0
KEA1 241858Z 23006KT 28/12 A2997 RMK A01 T02830121  RH  037%=      5-min Rain = 0
KEA1 241859Z 26008KT 29/12 A2997 RMK A01 T02850119  RH  036%=      5-min Rain = 0
KEA1 241900Z 27007KT 29/12 A2997 RMK A01 T02850119  RH  036%=      5-min Rain = 0
KEA1 241901Z 29005KT 29/12 A2997 RMK A01 T02850122  RH  036%=      5-min Rain = 0
KEA1 241902Z 23004KT 29/12 A2997 RMK A01 T02860121  RH  036%=      5-min Rain = 0
KEA1 241903Z 18007KT 28/12 A2997 RMK A01 T02840117  RH  036%=      5-min Rain = 0
KEA1 241904Z 17007KT 28/11 A2996 RMK A01 T02820113  RH  035%=      5-min Rain = 0
KEA1 241905Z 18008KT 28/11 A2996 RMK A01 T02810111  RH  035%=      5-min Rain = 0
KEA1 241906Z 17007KT 28/10 A2996 RMK A01 T02800104  RH  033%=      5-min Rain = 0
KEA1 241907Z 19007G12KT 28/11 A2996 RMK A01 T02800109  RH  034%=      5-min Rain = 0
KEA1 241908Z 20008KT 28/10 A2996 RMK A01 T02810100  RH  032%=      5-min Rain = 0
KEA1 241909Z 20005KT 28/10 A2996 RMK A01 T02800099  RH  032%=      5-min Rain = 0
KEA1 241910Z 16006KT 28/11 A2997 RMK A01 T02780105  RH  034%=      5-min Rain = 0
KEA1 241911Z 16007KT 28/12 A2996 RMK A01 T02830115  RH  035%=      5-min Rain = 0
KEA1 241912Z 17005KT 29/11 A2997 RMK A01 T02880107  RH  032%=      5-min Rain = 0
KEA1 241913Z 15006G11KT 29/11 A2996 RMK A01 T02880110  RH  033%=      5-min Rain = 0
KEA1 241914Z 18008KT 29/11 A2996 RMK A01 T02900106  RH  032%=      5-min Rain = 0
KEA1 241915Z 16008KT 29/10 A2996 RMK A01 T02920103  RH  031%=      5-min Rain = 0
KEA1 241916Z 14005KT 29/10 A2997 RMK A01 T02910102  RH  031%=      5-min Rain = 0
KEA1 241917Z 12003KT 29/10 A2996 RMK A01 T02890104  RH  032%=      5-min Rain = 0
KEA1 241918Z 16007KT 29/11 A2996 RMK A01 T02890106  RH  032%=      5-min Rain = 0
KEA1 241919Z 15005KT 29/10 A2996 RMK A01 T02850099  RH  031%=      5-min Rain = 0
KEA1 241920Z 12002KT 28/10 A2996 RMK A01 T02800104  RH  033%=      5-min Rain = 0
KEA1 241921Z 05001KT 28/11 A2996 RMK A01 T02790105  RH  034%=      5-min Rain = 0
KEA1 241922Z 13002KT 28/11 A2996 RMK A01 T02790105  RH  034%=      5-min Rain = 0
KEA1 241923Z 13002KT 28/11 A2996 RMK A01 T02810109  RH  034%=      5-min Rain = 0
KEA1 241924Z 01001KT 29/11 A2996 RMK A01 T02850107  RH  033%=      5-min Rain = 0
KEA1 241925Z 00004KT 29/11 A2995 RMK A01 T02900114  RH  034%=      5-min Rain = 0
KEA1 241926Z 01006KT 30/11 A2996 RMK A01 T02950112  RH  032%=      5-min Rain = 0
KEA1 241927Z 34008KT 30/11 A2995 RMK A01 T02960110  RH  032%=      5-min Rain = 0
KEA1 241928Z 04003KT 30/11 A2996 RMK A01 T02970111  RH  032%=      5-min Rain = 0
KEA1 241929Z 07003KT 30/11 A2996 RMK A01 T02970108  RH  031%=      5-min Rain = 0
KEA1 241930Z 09003KT 29/11 A2996 RMK A01 T02940106  RH  031%=      5-min Rain = 0
KEA1 241931Z 09003KT 29/11 A2996 RMK A01 T02920110  RH  032%=      5-min Rain = 0
KEA1 241932Z 17001KT 29/11 A2996 RMK A01 T02930108  RH  032%=      5-min Rain = 0
KEA1 241933Z 23006KT 30/11 A2996 RMK A01 T02950107  RH  031%=      5-min Rain = 0
KEA1 241934Z 24006KT 30/11 A2996 RMK A01 T02990105  RH  030%=      5-min Rain = 0
KEA1 241935Z 23007KT 30/10 A2996 RMK A01 T03010097  RH  028%=      5-min Rain = 0
KEA1 241936Z 18005KT 30/09 A2996 RMK A01 T03010092  RH  027%=      5-min Rain = 0
KEA1 241937Z 19005KT 30/10 A2996 RMK A01 T02960095  RH  029%=      5-min Rain = 0
KEA1 241938Z 20008KT 30/10 A2996 RMK A01 T02950098  RH  029%=      5-min Rain = 0
KEA1 241939Z 21009KT 29/10 A2996 RMK A01 T02940102  RH  030%=      5-min Rain = 0
KEA1 241940Z 21009KT 30/10 A2996 RMK A01 T02950100  RH  030%=      5-min Rain = 0
KEA1 241941Z 19010KT 30/10 A2996 RMK A01 T02970098  RH  029%=      5-min Rain = 0
KEA1 241942Z 19005KT 30/09 A2996 RMK A01 T02960094  RH  028%=      5-min Rain = 0
KEA1 241943Z 21003KT 29/10 A2995 RMK A01 T02940097  RH  029%=      5-min Rain = 0
KEA1 241944Z 19005G11KT 29/10 A2995 RMK A01 T02930097  RH  029%=      5-min Rain = 0
KEA1 241945Z 19009KT 29/10 A2995 RMK A01 T02920097  RH  030%=      5-min Rain = 0
KEA1 241946Z 20009G14KT 29/10 A2995 RMK A01 T02940096  RH  029%=      5-min Rain = 0
KEA1 241947Z 21012KT 30/10 A2995 RMK A01 T02950099  RH  030%=      5-min Rain = 0
KEA1 241948Z 20011KT 30/10 A2995 RMK A01 T02950095  RH  029%=      5-min Rain = 0
KEA1 241949Z 19009G14KT 29/10 A2995 RMK A01 T02930096  RH  029%=      5-min Rain = 0
KEA1 241950Z 21007KT 29/10 A2995 RMK A01 T02910096  RH  030%=      5-min Rain = 0
KEA1 241951Z 22006KT 29/10 A2995 RMK A01 T02930099  RH  030%=      5-min Rain = 0
KEA1 241952Z 21004KT 30/09 A2995 RMK A01 T02960094  RH  028%=      5-min Rain = 0
KEA1 241953Z 02003KT 29/09 A2995 RMK A01 T02920092  RH  029%=      5-min Rain = 0
KEA1 241954Z 33003KT 29/09 A2995 RMK A01 T02870091  RH  029%=      5-min Rain = 0
KEA1 241955Z 25004KT 28/09 A2995 RMK A01 T02830093  RH  030%=      5-min Rain = 0
KEA1 241956Z 19009KT 29/10 A2995 RMK A01 T02860101  RH  032%=      5-min Rain = 0
KEA1 241957Z 19008KT 29/10 A2995 RMK A01 T02920100  RH  030%=      5-min Rain = 0
KEA1 241958Z 19004KT 29/10 A2995 RMK A01 T02910095  RH  029%=      5-min Rain = 0
KEA1 241959Z 18005KT 29/10 A2995 RMK A01 T02880096  RH  030%=      5-min Rain = 0
KEA1 242000Z 21007KT 29/10 A2995 RMK A01 T02870097  RH  030%=      5-min Rain = 0
KEA1 242001Z 21006KT 29/10 A2995 RMK A01 T02850096  RH  031%=      5-min Rain = 0
KEA1 242002Z 22002KT 29/09 A2995 RMK A01 T02850093  RH  030%=      5-min Rain = 0
KEA1 242003Z 00003KT 29/09 A2995 RMK A01 T02850092  RH  030%=      5-min Rain = 0
KEA1 242004Z 36003KT 29/10 A2995 RMK A01 T02850096  RH  031%=      5-min Rain = 0
KEA1 242005Z 01003KT 29/10 A2994 RMK A01 T02850098  RH  031%=      5-min Rain = 0
KEA1 242006Z 02002KT 28/10 A2994 RMK A01 T02840095  RH  031%=      5-min Rain = 0
KEA1 242007Z 31004KT 28/10 A2995 RMK A01 T02830098  RH  032%=      5-min Rain = 0
KEA1 242008Z 29006KT 28/10 A2994 RMK A01 T02820099  RH  032%=      5-min Rain = 0
KEA1 242009Z 29005KT 28/10 A2995 RMK A01 T02810099  RH  032%=      5-min Rain = 0
KEA1 242010Z 30003KT 28/10 A2995 RMK A01 T02810095  RH  031%=      5-min Rain = 0
KEA1 242011Z 35003KT 28/09 A2994 RMK A01 T02800094  RH  031%=      5-min Rain = 0
KEA1 242012Z 03005KT 28/09 A2994 RMK A01 T02790094  RH  031%=      5-min Rain = 0
KEA1 242013Z 03005KT 28/10 A2994 RMK A01 T02780098  RH  032%=      5-min Rain = 0
KEA1 242014Z 34005KT 28/10 A2994 RMK A01 T02790101  RH  033%=      5-min Rain = 0
KEA1 242015Z 31004KT 28/09 A2994 RMK A01 T02790093  RH  031%=      5-min Rain = 0
KEA1 242016Z 31004KT 28/09 A2994 RMK A01 T02760092  RH  031%=      5-min Rain = 0
KEA1 242017Z 31003KT 28/10 A2994 RMK A01 T02750095  RH  032%=      5-min Rain = 0
KEA1 242018Z 01003KT 28/09 A2994 RMK A01 T02750093  RH  032%=      5-min Rain = 0
KEA1 242019Z 02003KT 28/10 A2994 RMK A01 T02750095  RH  032%=      5-min Rain = 0
KEA1 242020Z 31004KT 28/10 A2994 RMK A01 T02750098  RH  033%=      5-min Rain = 0
KEA1 242021Z 31006KT 28/10 A2994 RMK A01 T02760096  RH  032%=      5-min Rain = 0
KEA1 242022Z 32005KT 28/09 A2994 RMK A01 T02760093  RH  032%=      5-min Rain = 0
KEA1 242023Z 30002KT 28/10 A2994 RMK A01 T02760102  RH  034%=      5-min Rain = 0
KEA1 242024Z 31004KT 28/11 A2994 RMK A01 T02810106  RH  034%=      5-min Rain = 0
KEA1 242025Z 32003KT 29/11 A2993 RMK A01 T02860109  RH  033%=      5-min Rain = 0
KEA1 242026Z 32005KT 29/11 A2993 RMK A01 T02910108  RH  032%=      5-min Rain = 0
KEA1 242027Z 31006KT 29/11 A2993 RMK A01 T02930107  RH  032%=      5-min Rain = 0
KEA1 242028Z 31006KT 29/10 A2993 RMK A01 T02940104  RH  031%=      5-min Rain = 0
KEA1 242029Z 30003KT 29/10 A2993 RMK A01 T02930101  RH  030%=      5-min Rain = 0
KEA1 242030Z 29008KT 29/10 A2993 RMK A01 T02920099  RH  030%=      5-min Rain = 0
KEA1 242031Z 29006KT 29/10 A2993 RMK A01 T02880099  RH  031%=      5-min Rain = 0
KEA1 242032Z 29007KT 29/10 A2993 RMK A01 T02870101  RH  031%=      5-min Rain = 0
KEA1 242033Z 29006KT 29/11 A2993 RMK A01 T02900106  RH  032%=      5-min Rain = 0
KEA1 242034Z 28007KT 29/10 A2993 RMK A01 T02930104  RH  031%=      5-min Rain = 0
KEA1 242035Z 27007KT 29/10 A2993 RMK A01 T02920102  RH  031%=      5-min Rain = 0
KEA1 242036Z 28007KT 29/10 A2993 RMK A01 T02910102  RH  031%=      5-min Rain = 0
KEA1 242037Z 31007KT 29/10 A2993 RMK A01 T02890102  RH  031%=      5-min Rain = 0
KEA1 242038Z 33007KT 29/10 A2993 RMK A01 T02890101  RH  031%=      5-min Rain = 0
KEA1 242039Z 33004KT 29/10 A2993 RMK A01 T02890100  RH  031%=      5-min Rain = 0
KEA1 242040Z 34005KT 29/10 A2993 RMK A01 T02870099  RH  031%=      5-min Rain = 0
KEA1 242041Z 34007KT 29/11 A2993 RMK A01 T02880105  RH  032%=      5-min Rain = 0
KEA1 242042Z 33009KT 29/10 A2992 RMK A01 T02900101  RH  031%=      5-min Rain = 0
KEA1 242043Z 33003KT 29/10 A2992 RMK A01 T02890100  RH  031%=      5-min Rain = 0
KEA1 242044Z 02003KT 29/10 A2992 RMK A01 T02890100  RH  031%=      5-min Rain = 0
KEA1 242045Z 02008KT 29/11 A2992 RMK A01 T02920107  RH  032%=      5-min Rain = 0
KEA1 242046Z 36007KT 30/10 A2992 RMK A01 T02960104  RH  030%=      5-min Rain = 0
KEA1 242047Z 00005KT 30/10 A2992 RMK A01 T02950101  RH  030%=      5-min Rain = 0
KEA1 242048Z 02004KT 29/11 A2992 RMK A01 T02940106  RH  031%=      5-min Rain = 0
KEA1 242049Z 33006KT 30/11 A2992 RMK A01 T02970106  RH  031%=      5-min Rain = 0
KEA1 242050Z 30007KT 30/11 A2992 RMK A01 T02980107  RH  031%=      5-min Rain = 0
KEA1 242051Z 32007KT 30/11 A2992 RMK A01 T02990107  RH  031%=      5-min Rain = 0
KEA1 242052Z 35002KT 30/10 A2992 RMK A01 T02970097  RH  029%=      5-min Rain = 0
KEA1 242053Z 32002KT 29/10 A2992 RMK A01 T02940103  RH  031%=      5-min Rain = 0
KEA1 242054Z 30006KT 30/11 A2992 RMK A01 T02960106  RH  031%=      5-min Rain = 0
KEA1 242055Z 28008KT 30/10 A2992 RMK A01 T02980103  RH  030%=      5-min Rain = 0
KEA1 242056Z 29004KT 30/10 A2992 RMK A01 T02970101  RH  030%=      5-min Rain = 0
KEA1 242057Z 32005KT 30/10 A2992 RMK A01 T02960100  RH  030%=      5-min Rain = 0
KEA1 242058Z 33004KT 30/10 A2992 RMK A01 T02950100  RH  030%=      5-min Rain = 0
KEA1 242059Z 33003KT 29/10 A2992 RMK A01 T02920097  RH  030%=      5-min Rain = 0
KEA1 242100Z 33003KT 29/10 A2992 RMK A01 T02920099  RH  030%=      5-min Rain = 0
KEA1 242101Z 36003KT 29/10 A2992 RMK A01 T02920096  RH  029%=      5-min Rain = 0
KEA1 242102Z 36002KT 29/10 A2991 RMK A01 T02920099  RH  030%=      5-min Rain = 0
KEA1 242103Z 03003KT 29/10 A2991 RMK A01 T02930099  RH  030%=      5-min Rain = 0
KEA1 242104Z 01002KT 29/10 A2991 RMK A01 T02940097  RH  029%=      5-min Rain = 0
KEA1 242105Z 33001KT 29/10 A2991 RMK A01 T02920096  RH  030%=      5-min Rain = 0
KEA1 242106Z 25001KT 29/10 A2991 RMK A01 T02910098  RH  030%=      5-min Rain = 0
KEA1 242107Z 22003KT 29/10 A2991 RMK A01 T02930097  RH  030%=      5-min Rain = 0
KEA1 242108Z 23004KT 29/10 A2991 RMK A01 T02940101  RH  030%=      5-min Rain = 0
KEA1 242109Z 19007KT 30/10 A2991 RMK A01 T02980096  RH  028%=      5-min Rain = 0
KEA1 242110Z 20006KT 30/09 A2991 RMK A01 T02990088  RH  027%=      5-min Rain = 0
KEA1 242111Z 21005KT 30/09 A2991 RMK A01 T02960089  RH  027%=      5-min Rain = 0
KEA1 242112Z 26010KT 30/09 A2991 RMK A01 T02960093  RH  028%=      5-min Rain = 0
KEA1 242113Z 25009KT 30/09 A2991 RMK A01 T02990090  RH  027%=      5-min Rain = 0
KEA1 242114Z 25007KT 30/09 A2991 RMK A01 T02990089  RH  027%=      5-min Rain = 0
KEA1 242115Z 28005KT 30/09 A2991 RMK A01 T02980094  RH  028%=      5-min Rain = 0
KEA1 242116Z 32004KT 30/10 A2991 RMK A01 T03010096  RH  028%=      5-min Rain = 0
KEA1 242117Z 34005KT 30/09 A299 RMK A01 T03030093  RH  027%=      5-min Rain = 0
KEA1 242118Z 33004KT 30/09 A299 RMK A01 T03010088  RH  027%=      5-min Rain = 0
KEA1 242119Z 36001KT 30/09 A299 RMK A01 T02970086  RH  027%=      5-min Rain = 0
KEA1 242120Z 02000KT 30/09 A299 RMK A01 T02950087  RH  027%=      5-min Rain = 0
KEA1 242121Z 18002KT 30/09 A2991 RMK A01 T02970091  RH  028%=      5-min Rain = 0
KEA1 242122Z 17002KT 30/09 A2991 RMK A01 T03000090  RH  027%=      5-min Rain = 0
KEA1 242123Z 13006KT 30/09 A299 RMK A01 T03010090  RH  027%=      5-min Rain = 0
KEA1 242124Z 13006KT 30/08 A299 RMK A01 T03030084  RH  025%=      5-min Rain = 0
KEA1 242125Z 13006KT 30/09 A299 RMK A01 T03020087  RH  026%=      5-min Rain = 0
KEA1 242126Z 12005KT 31/09 A299 RMK A01 T03050087  RH  026%=      5-min Rain = 0
KEA1 242127Z 23004KT 30/09 A299 RMK A01 T03040089  RH  026%=      5-min Rain = 0
KEA1 242128Z 25003KT 30/09 A299 RMK A01 T03030090  RH  027%=      5-min Rain = 0
KEA1 242129Z 15003KT 30/09 A299 RMK A01 T03030093  RH  027%=      5-min Rain = 0
KEA1 242130Z 16006KT 31/09 A299 RMK A01 T03050087  RH  026%=      5-min Rain = 0
KEA1 242131Z 18008KT 31/09 A299 RMK A01 T03060090  RH  026%=      5-min Rain = 0
KEA1 242132Z 15007KT 31/09 A299 RMK A01 T03050091  RH  026%=      5-min Rain = 0
KEA1 242133Z 13008KT 31/09 A299 RMK A01 T03060091  RH  026%=      5-min Rain = 0
KEA1 242134Z 14003KT 31/09 A299 RMK A01 T03050085  RH  026%=      5-min Rain = 0
KEA1 242135Z 23001KT 30/09 A299 RMK A01 T03010088  RH  026%=      5-min Rain = 0
KEA1 242136Z 12003KT 30/09 A299 RMK A01 T03020088  RH  026%=      5-min Rain = 0
KEA1 242137Z 13005KT 30/09 A299 RMK A01 T03030094  RH  027%=      5-min Rain = 0
KEA1 242138Z 14006KT 31/09 A299 RMK A01 T03050090  RH  026%=      5-min Rain = 0
KEA1 242139Z 13005KT 30/09 A299 RMK A01 T03030086  RH  026%=      5-min Rain = 0
KEA1 242140Z 17007KT 30/09 A299 RMK A01 T03000089  RH  027%=      5-min Rain = 0
KEA1 242141Z 16006KT 30/09 A299 RMK A01 T03020087  RH  026%=      5-min Rain = 0
KEA1 242142Z 14003KT 30/09 A299 RMK A01 T03020089  RH  027%=      5-min Rain = 0
KEA1 242143Z 23004KT 30/09 A299 RMK A01 T03030088  RH  026%=      5-min Rain = 0
KEA1 242144Z 23005KT 30/09 A299 RMK A01 T03040086  RH  026%=      5-min Rain = 0
KEA1 242145Z 20002KT 30/08 A299 RMK A01 T03030083  RH  025%=      5-min Rain = 0
KEA1 242146Z 17002KT 30/08 A299 RMK A01 T03010083  RH  026%=      5-min Rain = 0
KEA1 242147Z 21004KT 30/09 A299 RMK A01 T03000090  RH  027%=      5-min Rain = 0
KEA1 242148Z 19006KT 30/09 A299 RMK A01 T03020088  RH  026%=      5-min Rain = 0
KEA1 242149Z 18003KT 30/09 A299 RMK A01 T03040085  RH  026%=      5-min Rain = 0
KEA1 242150Z 14003KT 30/09 A2989 RMK A01 T03010085  RH  026%=      5-min Rain = 0
KEA1 242151Z 14005KT 30/08 A2989 RMK A01 T03010080  RH  025%=      5-min Rain = 0
KEA1 242152Z 19004KT 30/08 A2989 RMK A01 T03010081  RH  025%=      5-min Rain = 0
KEA1 242153Z 23007KT 30/08 A2989 RMK A01 T03010084  RH  026%=      5-min Rain = 0
KEA1 242154Z 25006KT 30/08 A2989 RMK A01 T03040082  RH  025%=      5-min Rain = 0
KEA1 242155Z 27004KT 31/08 A2989 RMK A01 T03070079  RH  024%=      5-min Rain = 0
KEA1 242156Z 30005KT 31/07 A2989 RMK A01 T03080074  RH  023%=      5-min Rain = 0
KEA1 242157Z 31004KT 31/07 A2989 RMK A01 T03090073  RH  023%=      5-min Rain = 0
KEA1 242158Z 35001KT 31/07 A2988 RMK A01 T03060069  RH  023%=      5-min Rain = 0
KEA1 242159Z 07002KT 30/07 A2988 RMK A01 T03030070  RH  023%=      5-min Rain = 0
KEA1 242200Z 04002KT 30/08 A2988 RMK A01 T03020077  RH  024%=      5-min Rain = 0
KEA1 242201Z 03002KT 30/07 A2988 RMK A01 T03020073  RH  024%=      5-min Rain = 0
KEA1 242202Z 07003KT 30/08 A2988 RMK A01 T03030076  RH  024%=      5-min Rain = 0
KEA1 242203Z 06002KT 30/07 A2988 RMK A01 T03030072  RH  024%=      5-min Rain = 0
KEA1 242204Z 33000KT 30/07 A2988 RMK A01 T03010073  RH  024%=      5-min Rain = 0
KEA1 242205Z 35002KT 30/08 A2988 RMK A01 T03020076  RH  024%=      5-min Rain = 0
KEA1 242206Z 02001KT 31/08 A2988 RMK A01 T03050077  RH  024%=      5-min Rain = 0
KEA1 242207Z 03002KT 31/07 A2988 RMK A01 T03090068  RH  022%=      5-min Rain = 0
KEA1 242208Z 02003KT 31/07 A2988 RMK A01 T03090069  RH  022%=      5-min Rain = 0
KEA1 242209Z 32001KT 31/07 A2988 RMK A01 T03090068  RH  022%=      5-min Rain = 0
KEA1 242210Z 28001KT 31/07 A2988 RMK A01 T03110073  RH  023%=      5-min Rain = 0
KEA1 242211Z 24002G7KT 31/07 A2988 RMK A01 T03130070  RH  022%=      5-min Rain = 0
KEA1 242212Z 24008KT 32/07 A2987 RMK A01 T03150071  RH  022%=      5-min Rain = 0
KEA1 242213Z 19006KT 32/08 A2987 RMK A01 T03170076  RH  022%=      5-min Rain = 0
KEA1 242214Z 17004KT 32/07 A2987 RMK A01 T03170069  RH  021%=      5-min Rain = 0
KEA1 242215Z 16005KT 32/07 A2987 RMK A01 T03160071  RH  022%=      5-min Rain = 0
KEA1 242216Z 16006KT 32/07 A2987 RMK A01 T03170073  RH  022%=      5-min Rain = 0
KEA1 242217Z 19007KT 32/07 A2987 RMK A01 T03210071  RH  021%=      5-min Rain = 0
KEA1 242218Z 25009KT 32/07 A2987 RMK A01 T03220065  RH  020%=      5-min Rain = 0
KEA1 242219Z 25009KT 32/04 A2987 RMK A01 T03200037  RH  017%=      5-min Rain = 0
KEA1 242220Z 25011KT 32/03 A2987 RMK A01 T03190027  RH  016%=      5-min Rain = 0
KEA1 242221Z 26008KT 32/03 A2987 RMK A01 T03170032  RH  016%=      5-min Rain = 0
KEA1 242222Z 24006KT 32/03 A2987 RMK A01 T03180030  RH  016%=      5-min Rain = 0
KEA1 242223Z 24006KT 32/03 A2987 RMK A01 T03190032  RH  016%=      5-min Rain = 0
KEA1 242224Z 23003KT 32/04 A2987 RMK A01 T03200037  RH  017%=      5-min Rain = 0
KEA1 242225Z 18006KT 32/04 A2987 RMK A01 T03200036  RH  017%=      5-min Rain = 0
KEA1 242226Z 21007KT 32/04 A2987 RMK A01 T03200036  RH  017%=      5-min Rain = 0
KEA1 242227Z 20006KT 32/02 A2987 RMK A01 T03180022  RH  015%=      5-min Rain = 0
KEA1 242228Z 20007KT 32/05 A2987 RMK A01 T03160054  RH  019%=      5-min Rain = 0
KEA1 242229Z 16012KT 32/08 A2987 RMK A01 T03150077  RH  023%=      5-min Rain = 0
KEA1 242230Z 18011KT 31/08 A2987 RMK A01 T03140079  RH  023%=      5-min Rain = 0
KEA1 242231Z 19013KT 31/08 A2987 RMK A01 T03120079  RH  023%=      5-min Rain = 0
KEA1 242232Z 19009KT 31/08 A2987 RMK A01 T03110077  RH  023%=      5-min Rain = 0
KEA1 242233Z 17007KT 31/08 A2987 RMK A01 T03110079  RH  024%=      5-min Rain = 0
KEA1 242234Z 17011KT 31/08 A2987 RMK A01 T03110081  RH  024%=      5-min Rain = 0
KEA1 242235Z 17011KT 31/08 A2987 RMK A01 T03130079  RH  023%=      5-min Rain = 0
KEA1 242236Z 16008KT 31/08 A2987 RMK A01 T03130077  RH  023%=      5-min Rain = 0
KEA1 242237Z 17009KT 31/08 A2987 RMK A01 T03120081  RH  024%=      5-min Rain = 0
KEA1 242238Z 17010KT 31/08 A2987 RMK A01 T03110075  RH  023%=      5-min Rain = 0
KEA1 242239Z 17007KT 31/08 A2987 RMK A01 T03110078  RH  024%=      5-min Rain = 0
KEA1 242240Z 20010KT 31/08 A2987 RMK A01 T03100081  RH  024%=      5-min Rain = 0
KEA1 242241Z 19010KT 31/08 A2987 RMK A01 T03100080  RH  024%=      5-min Rain = 0
KEA1 242242Z 18011G17KT 31/08 A2987 RMK A01 T03080082  RH  024%=      5-min Rain = 0
KEA1 242243Z 17013KT 31/09 A2987 RMK A01 T03080085  RH  025%=      5-min Rain = 0
KEA1 242244Z 18011KT 31/08 A2987 RMK A01 T03100081  RH  024%=      5-min Rain = 0
KEA1 242245Z 18009KT 31/08 A2987 RMK A01 T03100082  RH  024%=      5-min Rain = 0
KEA1 242246Z 16012KT 31/09 A2987 RMK A01 T03100086  RH  025%=      5-min Rain = 0
KEA1 242247Z 15011KT 31/08 A2987 RMK A01 T03110084  RH  024%=      5-min Rain = 0
KEA1 242248Z 14010KT 31/08 A2987 RMK A01 T03100081  RH  024%=      5-min Rain = 0
KEA1 242249Z 15010KT 31/09 A2987 RMK A01 T03090091  RH  026%=      5-min Rain = 0
KEA1 242250Z 15010KT 31/09 A2987 RMK A01 T03120088  RH  025%=      5-min Rain = 0
KEA1 242251Z 14009KT 31/09 A2987 RMK A01 T03120085  RH  024%=      5-min Rain = 0
KEA1 242252Z 13010KT 31/09 A2987 RMK A01 T03100088  RH  025%=      5-min Rain = 0
KEA1 242253Z 13011KT 31/08 A2987 RMK A01 T03100084  RH  025%=      5-min Rain = 0
KEA1 242254Z 13009KT 31/09 A2987 RMK A01 T03090087  RH  025%=      5-min Rain = 0
KEA1 242255Z 14014G19KT 31/08 A2987 RMK A01 T03090084  RH  025%=      5-min Rain = 0
KEA1 242256Z 15015KT 31/08 A2987 RMK A01 T03070084  RH  025%=      5-min Rain = 0
KEA1 242257Z 14012KT 31/09 A2987 RMK A01 T03060087  RH  025%=      5-min Rain = 0
KEA1 242258Z 14013KT 31/09 A2987 RMK A01 T03070086  RH  025%=      5-min Rain = 0
KEA1 242259Z 15011KT 31/08 A2987 RMK A01 T03070083  RH  025%=      5-min Rain = 0
KEA1 242300Z 13009KT 31/09 A2987 RMK A01 T03060085  RH  025%=      5-min Rain = 0
KEA1 242301Z 12008KT 31/08 A2987 RMK A01 T03060084  RH  025%=      5-min Rain = 0
KEA1 242302Z 14012KT 31/08 A2987 RMK A01 T03050083  RH  025%=      5-min Rain = 0
KEA1 242303Z 14012KT 31/08 A2987 RMK A01 T03050084  RH  025%=      5-min Rain = 0
KEA1 242304Z 15012KT 30/09 A2987 RMK A01 T03040085  RH  026%=      5-min Rain = 0
KEA1 242305Z 14012KT 30/08 A2987 RMK A01 T03040083  RH  025%=      5-min Rain = 0
KEA1 242306Z 14011KT 30/09 A2987 RMK A01 T03040086  RH  026%=      5-min Rain = 0
KEA1 242307Z 13011KT 31/08 A2987 RMK A01 T03050084  RH  025%=      5-min Rain = 0
KEA1 242308Z 14009KT 31/09 A2987 RMK A01 T03050086  RH  026%=      5-min Rain = 0
KEA1 242309Z 13010KT 31/09 A2987 RMK A01 T03060086  RH  025%=      5-min Rain = 0
KEA1 242310Z 14010KT 31/09 A2986 RMK A01 T03050086  RH  025%=      5-min Rain = 0
KEA1 242311Z 13007KT 31/08 A2986 RMK A01 T03050081  RH  025%=      5-min Rain = 0
KEA1 242312Z 16005KT 30/09 A2986 RMK A01 T03030086  RH  026%=      5-min Rain = 0
KEA1 242313Z 16009KT 30/08 A2986 RMK A01 T03040084  RH  025%=      5-min Rain = 0
KEA1 242314Z 15009KT 30/08 A2986 RMK A01 T03040084  RH  025%=      5-min Rain = 0
KEA1 242315Z 17007KT 31/09 A2986 RMK A01 T03060086  RH  025%=      5-min Rain = 0
KEA1 242316Z 18009KT 31/09 A2986 RMK A01 T03080087  RH  025%=      5-min Rain = 0
KEA1 242317Z 17011KT 31/08 A2986 RMK A01 T03100080  RH  024%=      5-min Rain = 0
KEA1 242318Z 18012KT 31/08 A2986 RMK A01 T03090078  RH  024%=      5-min Rain = 0
KEA1 242319Z 18012KT 31/07 A2986 RMK A01 T03080074  RH  023%=      5-min Rain = 0
KEA1 242320Z 18012KT 31/08 A2986 RMK A01 T03070077  RH  024%=      5-min Rain = 0
KEA1 242321Z 17010KT 31/08 A2986 RMK A01 T03050078  RH  024%=      5-min Rain = 0
KEA1 242322Z 16010KT 31/08 A2986 RMK A01 T03050078  RH  024%=      5-min Rain = 0
KEA1 242323Z 18009KT 30/08 A2986 RMK A01 T03040080  RH  025%=      5-min Rain = 0
KEA1 242324Z 18009KT 31/08 A2986 RMK A01 T03060077  RH  024%=      5-min Rain = 0
KEA1 242325Z 18007KT 31/08 A2986 RMK A01 T03070076  RH  024%=      5-min Rain = 0
KEA1 242326Z 19008KT 31/07 A2986 RMK A01 T03070070  RH  023%=      5-min Rain = 0
KEA1 242327Z 19010KT 31/07 A2986 RMK A01 T03050074  RH  024%=      5-min Rain = 0
KEA1 242328Z 19010KT 31/08 A2986 RMK A01 T03050075  RH  024%=      5-min Rain = 0
KEA1 242329Z 18009KT 31/07 A2986 RMK A01 T03050072  RH  023%=      5-min Rain = 0
KEA1 242330Z 18008KT 30/07 A2986 RMK A01 T03040070  RH  023%=      5-min Rain = 0
KEA1 242331Z 18009KT 30/07 A2986 RMK A01 T03040069  RH  023%=      5-min Rain = 0
KEA1 242332Z 19010KT 31/07 A2986 RMK A01 T03050070  RH  023%=      5-min Rain = 0
KEA1 242333Z 18009KT 31/07 A2986 RMK A01 T03050073  RH  023%=      5-min Rain = 0
KEA1 242334Z 19009KT 31/08 A2986 RMK A01 T03060078  RH  024%=      5-min Rain = 0
KEA1 242335Z 18011KT 31/08 A2986 RMK A01 T03060080  RH  024%=      5-min Rain = 0
KEA1 242336Z 18011KT 31/08 A2986 RMK A01 T03060082  RH  025%=      5-min Rain = 0
KEA1 242337Z 19010KT 31/08 A2986 RMK A01 T03050083  RH  025%=      5-min Rain = 0
KEA1 242338Z 18009KT 30/08 A2986 RMK A01 T03040084  RH  025%=      5-min Rain = 0
KEA1 242339Z 17013KT 30/09 A2986 RMK A01 T03030086  RH  026%=      5-min Rain = 0
KEA1 242340Z 16012KT 30/08 A2986 RMK A01 T03030083  RH  025%=      5-min Rain = 0
KEA1 242341Z 16010KT 30/09 A2986 RMK A01 T03020085  RH  026%=      5-min Rain = 0
KEA1 242342Z 16011KT 30/08 A2986 RMK A01 T03020083  RH  025%=      5-min Rain = 0
KEA1 242343Z 15011KT 30/08 A2986 RMK A01 T03020081  RH  025%=      5-min Rain = 0
KEA1 242344Z 14010KT 30/08 A2986 RMK A01 T03010081  RH  025%=      5-min Rain = 0
KEA1 242345Z 15012KT 30/08 A2986 RMK A01 T03010081  RH  025%=      5-min Rain = 0
KEA1 242346Z 16012G17KT 30/08 A2986 RMK A01 T03010082  RH  025%=      5-min Rain = 0
KEA1 242347Z 16015KT 30/08 A2986 RMK A01 T03020077  RH  025%=      5-min Rain = 0
KEA1 242348Z 16013KT 30/08 A2986 RMK A01 T03010077  RH  025%=      5-min Rain = 0
KEA1 242349Z 17012KT 30/07 A2986 RMK A01 T03010074  RH  024%=      5-min Rain = 0
KEA1 242350Z 16009KT 30/08 A2986 RMK A01 T03000077  RH  025%=      5-min Rain = 0
KEA1 242351Z 18010KT 30/08 A2986 RMK A01 T03000075  RH  024%=      5-min Rain = 0
KEA1 242352Z 17010KT 30/07 A2986 RMK A01 T03000074  RH  024%=      5-min Rain = 0
KEA1 242353Z 16012KT 30/08 A2986 RMK A01 T03000077  RH  025%=      5-min Rain = 0
KEA1 242354Z 16012KT 30/08 A2986 RMK A01 T03000075  RH  024%=      5-min Rain = 0
KEA1 242355Z 17013KT 30/08 A2986 RMK A01 T03000075  RH  024%=      5-min Rain = 0
KEA1 242356Z 17013KT 30/07 A2986 RMK A01 T02990073  RH  024%=      5-min Rain = 0
KEA1 242357Z 16010KT 30/07 A2986 RMK A01 T02990073  RH  024%=      5-min Rain = 0
KEA1 242358Z 16011KT 30/07 A2986 RMK A01 T02990070  RH  024%=      5-min Rain = 0
KEA1 242359Z 17009KT 30/07 A2986 RMK A01 T02990070  RH  024%=      5-min Rain = 0
KEA1 250000Z 15009KT 30/07 A2986 RMK A01 T02990074  RH  024%=      5-min Rain = 0
KEA1 250001Z 14010KT 30/07 A2986 RMK A01 T03000074  RH  024%=      5-min Rain = 0
KEA1 250002Z 11012KT 30/09 A2986 RMK A01 T03000093  RH  028%=      5-min Rain = 0
KEA1 250003Z 12014KT 29/16 A2986 RMK A01 T02920158  RH  044%=      5-min Rain = 0
KEA1 250004Z 11013KT 28/16 A2986 RMK A01 T02800164  RH  049%=      5-min Rain = 0
KEA1 250005Z 11015G21KT 27/17 A2986 RMK A01 T02740165  RH  051%=      5-min Rain = 0
KEA1 250006Z 11018KT 27/17 A2986 RMK A01 T02700167  RH  053%=      5-min Rain = 0
KEA1 250007Z 10016KT 27/17 A2986 RMK A01 T02650167  RH  055%=      5-min Rain = 0
KEA1 250008Z 11015KT 26/17 A2986 RMK A01 T02610167  RH  056%=      5-min Rain = 0
KEA1 250009Z 13016KT 26/17 A2986 RMK A01 T02600167  RH  056%=      5-min Rain = 0
KEA1 250010Z 12014KT 26/17 A2986 RMK A01 T02610166  RH  056%=      5-min Rain = 0
KEA1 250011Z 11014KT 26/17 A2986 RMK A01 T02620165  RH  055%=      5-min Rain = 0
KEA1 250012Z 12013G21KT 26/16 A2986 RMK A01 T02620164  RH  055%=      5-min Rain = 0
KEA1 250013Z 11016KT 26/16 A2986 RMK A01 T02630163  RH  054%=      5-min Rain = 0
KEA1 250014Z 12017KT 26/17 A2986 RMK A01 T02620165  RH  055%=      5-min Rain = 0
KEA1 250015Z 11014G19KT 26/17 A2986 RMK A01 T02600166  RH  056%=      5-min Rain = 0
KEA1 250016Z 11013KT 26/17 A2986 RMK A01 T02580165  RH  056%=      5-min Rain = 0
KEA1 250017Z 11012KT 26/17 A2986 RMK A01 T02580166  RH  057%=      5-min Rain = 0
KEA1 250018Z 10014KT 26/17 A2986 RMK A01 T02580165  RH  057%=      5-min Rain = 0
KEA1 250019Z 11014KT 26/17 A2986 RMK A01 T02570165  RH  057%=      5-min Rain = 0
KEA1 250020Z 12017KT 26/16 A2986 RMK A01 T02570164  RH  056%=      5-min Rain = 0
KEA1 250021Z 11015KT 26/16 A2986 RMK A01 T02560164  RH  056%=      5-min Rain = 0
KEA1 250022Z 12017KT 26/16 A2986 RMK A01 T02560164  RH  057%=      5-min Rain = 0
KEA1 250023Z 12018KT 26/17 A2986 RMK A01 T02550165  RH  057%=      5-min Rain = 0
KEA1 250024Z 11013KT 26/17 A2986 RMK A01 T02550165  RH  058%=      5-min Rain = 0
KEA1 250025Z 11013KT 25/17 A2986 RMK A01 T02540165  RH  058%=      5-min Rain = 0
KEA1 250026Z 11013KT 26/17 A2986 RMK A01 T02550165  RH  058%=      5-min Rain = 0
KEA1 250027Z 11015KT 26/16 A2986 RMK A01 T02550164  RH  057%=      5-min Rain = 0
KEA1 250028Z 12016KT 26/16 A2986 RMK A01 T02550163  RH  057%=      5-min Rain = 0
KEA1 250029Z 11014KT 25/16 A2986 RMK A01 T02540164  RH  057%=      5-min Rain = 0
KEA1 250030Z 12012KT 25/17 A2986 RMK A01 T02540166  RH  058%=      5-min Rain = 0
KEA1 250031Z 12014KT 25/17 A2986 RMK A01 T02540166  RH  058%=      5-min Rain = 0
KEA1 250032Z 12016G22KT 25/17 A2986 RMK A01 T02540166  RH  058%=      5-min Rain = 0
KEA1 250033Z 11016KT 25/17 A2986 RMK A01 T02520167  RH  059%=      5-min Rain = 0
KEA1 250034Z 11016KT 25/17 A2986 RMK A01 T02480167  RH  061%=      5-min Rain = 0
KEA1 250035Z 11013KT 25/17 A2986 RMK A01 T02450167  RH  062%=      5-min Rain = 0
KEA1 250036Z 11014KT 24/17 A2986 RMK A01 T02440167  RH  062%=      5-min Rain = 0
KEA1 250037Z 11011KT 24/17 A2986 RMK A01 T02430167  RH  063%=      5-min Rain = 0
KEA1 250038Z 11010KT 24/17 A2986 RMK A01 T02430168  RH  063%=      5-min Rain = 0
KEA1 250039Z 11013KT 24/17 A2986 RMK A01 T02430167  RH  062%=      5-min Rain = 0
KEA1 250040Z 11011KT 24/17 A2986 RMK A01 T02440167  RH  062%=      5-min Rain = 0
KEA1 250041Z 12011KT 24/17 A2986 RMK A01 T02430167  RH  062%=      5-min Rain = 0
KEA1 250042Z 12011KT 24/17 A2986 RMK A01 T02430167  RH  062%=      5-min Rain = 0
KEA1 250043Z 12010KT 24/17 A2986 RMK A01 T02430168  RH  063%=      5-min Rain = 0
KEA1 250044Z 12013KT 24/17 A2986 RMK A01 T02430167  RH  062%=      5-min Rain = 0
KEA1 250045Z 12011KT 24/17 A2986 RMK A01 T02430167  RH  062%=      5-min Rain = 0
KEA1 250046Z 12011KT 24/17 A2986 RMK A01 T02430167  RH  062%=      5-min Rain = 0
KEA1 250047Z 12013KT 24/17 A2985 RMK A01 T02430166  RH  062%=      5-min Rain = 0
KEA1 250048Z 11013KT 24/17 A2985 RMK A01 T02430167  RH  062%=      5-min Rain = 0
KEA1 250049Z 12012KT 24/17 A2986 RMK A01 T02430167  RH  062%=      5-min Rain = 0
KEA1 250050Z 11011G16KT 24/17 A2986 RMK A01 T02430168  RH  063%=      5-min Rain = 0
KEA1 250051Z 11014KT 24/17 A2986 RMK A01 T02430167  RH  062%=      5-min Rain = 0
KEA1 250052Z 11013KT 24/17 A2986 RMK A01 T02420165  RH  062%=      5-min Rain = 0
KEA1 250053Z 11014KT 24/17 A2986 RMK A01 T02410165  RH  063%=      5-min Rain = 0
KEA1 250054Z 11013KT 24/17 A2986 RMK A01 T02400166  RH  063%=      5-min Rain = 0
KEA1 250055Z 11012KT 24/17 A2986 RMK A01 T02400165  RH  063%=      5-min Rain = 0
KEA1 250056Z 11012KT 24/17 A2986 RMK A01 T02400165  RH  063%=      5-min Rain = 0
KEA1 250057Z 11014KT 24/16 A2986 RMK A01 T02390164  RH  062%=      5-min Rain = 0
KEA1 250058Z 12013KT 24/16 A2986 RMK A01 T02390162  RH  062%=      5-min Rain = 0
KEA1 250059Z 12013KT 24/16 A2986 RMK A01 T02390162  RH  062%=      5-min Rain = 0
KEA1 250100Z 12011KT 24/16 A2986 RMK A01 T02380161  RH  062%=      5-min Rain = 0
KEA1 250101Z 12008KT 24/16 A2986 RMK A01 T02380161  RH  062%=      5-min Rain = 0
KEA1 250102Z 12007KT 24/16 A2986 RMK A01 T02380163  RH  062%=      5-min Rain = 0
KEA1 250103Z 12009KT 24/16 A2986 RMK A01 T02380163  RH  063%=      5-min Rain = 0
KEA1 250104Z 11010KT 24/16 A2986 RMK A01 T02380162  RH  063%=      5-min Rain = 0
KEA1 250105Z 11010KT 24/16 A2986 RMK A01 T02370162  RH  063%=      5-min Rain = 0
KEA1 250106Z 12011KT 24/16 A2986 RMK A01 T02360162  RH  063%=      5-min Rain = 0
KEA1 250107Z 12009KT 24/16 A2987 RMK A01 T02350163  RH  064%=      5-min Rain = 0
KEA1 250108Z 12012KT 24/16 A2987 RMK A01 T02350164  RH  064%=      5-min Rain = 0
KEA1 250109Z 12011KT 24/16 A2987 RMK A01 T02350164  RH  064%=      5-min Rain = 0
KEA1 250110Z 11010KT 24/16 A2987 RMK A01 T02350164  RH  064%=      5-min Rain = 0
KEA1 250111Z 12012KT 24/16 A2987 RMK A01 T02350164  RH  064%=      5-min Rain = 0
KEA1 250112Z 11009KT 24/16 A2987 RMK A01 T02350164  RH  064%=      5-min Rain = 0
KEA1 250113Z 11009KT 23/16 A2987 RMK A01 T02340164  RH  065%=      5-min Rain = 0
KEA1 250114Z 11011KT 23/16 A2987 RMK A01 T02340164  RH  065%=      5-min Rain = 0
KEA1 250115Z 12014KT 23/16 A2988 RMK A01 T02330164  RH  065%=      5-min Rain = 0
KEA1 250116Z 11013G21KT 23/16 A2988 RMK A01 T02330164  RH  065%=      5-min Rain = 0
KEA1 250117Z 12019KT 23/17 A2988 RMK A01 T02330165  RH  066%=      5-min Rain = 0
KEA1 250118Z 12016KT 23/17 A2988 RMK A01 T02300165  RH  067%=      5-min Rain = 0
KEA1 250119Z 12015KT 23/17 A2988 RMK A01 T02280165  RH  068%=      5-min Rain = 0
KEA1 250120Z 12018KT 23/16 A2988 RMK A01 T02260164  RH  068%=      5-min Rain = 0
KEA1 250121Z 12020KT 22/16 A2988 RMK A01 T02230161  RH  068%=      5-min Rain = 0
KEA1 250122Z 11020G27KT 22/16 A2988 RMK A01 T02190159  RH  068%=      5-min Rain = 0
KEA1 250123Z 11019KT 22/16 A2989 RMK A01 T02170158  RH  069%=      5-min Rain = 0
KEA1 250124Z 12020KT 21/16 A2989 RMK A01 T02140158  RH  070%=      5-min Rain = 0
KEA1 250125Z 11018KT 21/16 A2989 RMK A01 T02130159  RH  071%=      5-min Rain = 0
KEA1 250126Z 11019KT 21/16 A2989 RMK A01 T02110159  RH  072%=      5-min Rain = 0
KEA1 250127Z 11018G23KT 21/16 A2989 RMK A01 T02100160  RH  073%=      5-min Rain = 0
KEA1 250128Z 11019KT 21/16 A299 RMK A01 T02090160  RH  073%=      5-min Rain = 0
KEA1 250129Z 11017G22KT 21/16 A299 RMK A01 T02080160  RH  074%=      5-min Rain = 0
KEA1 250130Z 11018KT 21/16 A299 RMK A01 T02080160  RH  074%=      5-min Rain = 0
KEA1 250131Z 11019KT 21/16 A299 RMK A01 T02070157  RH  073%=      5-min Rain = 0
KEA1 250132Z 11018KT 21/16 A299 RMK A01 T02070157  RH  073%=      5-min Rain = 0
KEA1 250133Z 11015KT 21/16 A299 RMK A01 T02060155  RH  073%=      5-min Rain = 0
KEA1 250134Z 10016KT 21/16 A299 RMK A01 T02060155  RH  073%=      5-min Rain = 0
KEA1 250135Z 11015KT 21/15 A299 RMK A01 T02050154  RH  072%=      5-min Rain = 0
KEA1 250136Z 11015G21KT 21/15 A299 RMK A01 T02050154  RH  073%=      5-min Rain = 0
KEA1 250137Z 11017KT 20/15 A299 RMK A01 T02040153  RH  072%=      5-min Rain = 0
KEA1 250138Z 12017KT 20/15 A299 RMK A01 T02030152  RH  072%=      5-min Rain = 0
KEA1 250139Z 11014KT 20/15 A299 RMK A01 T02020152  RH  073%=      5-min Rain = 0
KEA1 250140Z 11013KT 20/15 A299 RMK A01 T02020152  RH  073%=      5-min Rain = 0
KEA1 250141Z 11016KT 20/15 A2991 RMK A01 T02010151  RH  073%=      5-min Rain = 0
KEA1 250142Z 11014KT 20/15 A2991 RMK A01 T02010151  RH  073%=      5-min Rain = 0
KEA1 250143Z 11015G20KT 20/15 A2991 RMK A01 T02000151  RH  073%=      5-min Rain = 0
KEA1 250144Z 11015KT 20/15 A2991 RMK A01 T02000150  RH  073%=      5-min Rain = 0
KEA1 250145Z 10013KT 20/15 A2991 RMK A01 T02000151  RH  073%=      5-min Rain = 0
KEA1 250146Z 10014KT 20/15 A2992 RMK A01 T01990151  RH  074%=      5-min Rain = 0
KEA1 250147Z 11019G24KT 20/15 A2992 RMK A01 T01990152  RH  074%=      5-min Rain = 0
KEA1 250148Z 10016G21KT 20/15 A2992 RMK A01 T01970154  RH  076%=      5-min Rain = 0
KEA1 250149Z 11011KT 20/16 A2992 RMK A01 T01960155  RH  077%=      5-min Rain = 0
KEA1 250150Z 11013KT 19/15 A2992 RMK A01 T01940154  RH  078%=      5-min Rain = 0
KEA1 250151Z 11009KT 19/15 A2991 RMK A01 T01930153  RH  077%=      5-min Rain = 0
KEA1 250152Z 11010KT 19/15 A2991 RMK A01 T01940154  RH  078%=      5-min Rain = 0
KEA1 250153Z 12012KT 19/15 A2991 RMK A01 T01930154  RH  078%=      5-min Rain = 0
KEA1 250154Z 12013KT 19/15 A2992 RMK A01 T01930154  RH  078%=      5-min Rain = 0
KEA1 250155Z 11012KT 19/15 A2992 RMK A01 T01930154  RH  078%=      5-min Rain = 0
KEA1 250156Z 12014KT 19/15 A2992 RMK A01 T01920154  RH  079%=      5-min Rain = 0
KEA1 250157Z 12013KT 19/16 A2992 RMK A01 T01920155  RH  079%=      5-min Rain = 0
KEA1 250158Z 12012KT 19/16 A2992 RMK A01 T01920155  RH  079%=      5-min Rain = 0
KEA1 250159Z 13013KT 19/16 A2992 RMK A01 T01910155  RH  080%=      5-min Rain = 0
KEA1 250200Z 13015KT 19/16 A2992 RMK A01 T01910155  RH  080%=      5-min Rain = 0
KEA1 250201Z 13017KT 19/16 A2993 RMK A01 T01910155  RH  080%=      5-min Rain = 0
KEA1 250202Z 13013KT 19/16 A2992 RMK A01 T01900155  RH  080%=      5-min Rain = 0
KEA1 250203Z 13015KT 19/16 A2992 RMK A01 T01900155  RH  080%=      5-min Rain = 0
KEA1 250204Z 13014KT 19/16 A2993 RMK A01 T01910155  RH  080%=      5-min Rain = 0
KEA1 250205Z 13015KT 19/16 A2992 RMK A01 T01910155  RH  080%=      5-min Rain = 0
KEA1 250206Z 13015KT 19/15 A2992 RMK A01 T01900154  RH  079%=      5-min Rain = 0
KEA1 250207Z 14015KT 19/15 A2992 RMK A01 T01910154  RH  079%=      5-min Rain = 0
KEA1 250208Z 14015KT 19/15 A2992 RMK A01 T01910154  RH  079%=      5-min Rain = 0
KEA1 250209Z 14016KT 19/15 A2992 RMK A01 T01910154  RH  079%=      5-min Rain = 0
KEA1 250210Z 13014KT 19/15 A2992 RMK A01 T01910154  RH  079%=      5-min Rain = 0
KEA1 250211Z 14014KT 19/15 A2992 RMK A01 T01910153  RH  078%=      5-min Rain = 0
KEA1 250212Z 13015G20KT 19/15 A2992 RMK A01 T01920152  RH  078%=      5-min Rain = 0
KEA1 250213Z 14019KT 19/15 A2992 RMK A01 T01920151  RH  077%=      5-min Rain = 0
KEA1 250214Z 14019KT 19/15 A2992 RMK A01 T01940152  RH  077%=      5-min Rain = 0
KEA1 250215Z 14016KT 20/15 A2992 RMK A01 T01950152  RH  076%=      5-min Rain = 0
KEA1 250216Z 14019KT 20/15 A2992 RMK A01 T01950153  RH  076%=      5-min Rain = 0
KEA1 250217Z 14019G24KT 20/15 A2992 RMK A01 T01960154  RH  077%=      5-min Rain = 0
KEA1 250218Z 14022G28KT 20/16 A2992 RMK A01 T01970155  RH  077%=      5-min Rain = 0
KEA1 250219Z 14023G28KT 20/16 A2992 RMK A01 T01980156  RH  076%=      5-min Rain = 0
KEA1 250220Z 14022G27KT 20/16 A2993 RMK A01 T01990156  RH  076%=      5-min Rain = 0
KEA1 250221Z 14023KT 20/16 A2993 RMK A01 T01990156  RH  076%=      5-min Rain = 0
KEA1 250222Z 14022KT 20/16 A2993 RMK A01 T01990155  RH  076%=      5-min Rain = 0
KEA1 250223Z 14019KT 20/16 A2993 RMK A01 T01990156  RH  076%=      5-min Rain = 0
KEA1 250224Z 14017KT 20/16 A2993 RMK A01 T01990156  RH  076%=      5-min Rain = 0
KEA1 250225Z 14014KT 20/16 A2993 RMK A01 T01980155  RH  076%=      5-min Rain = 0
KEA1 250226Z 14016KT 20/16 A2993 RMK A01 T01970155  RH  077%=      5-min Rain = 0
KEA1 250227Z 14019KT 20/16 A2993 RMK A01 T01960155  RH  077%=      5-min Rain = 0
KEA1 250228Z 14018KT 20/16 A2993 RMK A01 T01960155  RH  077%=      5-min Rain = 0
KEA1 250229Z 14022G27KT 20/15 A2993 RMK A01 T01950150  RH  075%=      5-min Rain = 0
KEA1 250230Z 14024KT 20/14 A2993 RMK A01 T01950136  RH  069%=      5-min Rain = 0
KEA1 250231Z 14020KT 19/13 A2993 RMK A01 T01940132  RH  067%=      5-min Rain = 0
KEA1 250232Z 14016KT 19/13 A2993 RMK A01 T01930132  RH  068%=      5-min Rain = 0
KEA1 250233Z 15016KT 19/13 A2993 RMK A01 T01910134  RH  069%=      5-min Rain = 0
KEA1 250234Z 15015KT 19/13 A2993 RMK A01 T01900131  RH  069%=      5-min Rain = 0
KEA1 250235Z 15015G20KT 19/13 A2992 RMK A01 T01890127  RH  067%=      5-min Rain = 0
KEA1 250236Z 15015KT 19/12 A2992 RMK A01 T01880124  RH  066%=      5-min Rain = 0
KEA1 250237Z 15014KT 19/12 A2993 RMK A01 T01870122  RH  066%=      5-min Rain = 0
KEA1 250238Z 15016KT 19/12 A2993 RMK A01 T01870119  RH  065%=      5-min Rain = 0
KEA1 250239Z 15015KT 19/12 A2992 RMK A01 T01860115  RH  063%=      5-min Rain = 0
KEA1 250240Z 15014KT 19/11 A2992 RMK A01 T01850114  RH  063%=      5-min Rain = 0
KEA1 250241Z 15013KT 19/11 A2992 RMK A01 T01850113  RH  063%=      5-min Rain = 0
KEA1 250242Z 15013KT 18/11 A2992 RMK A01 T01840112  RH  063%=      5-min Rain = 0
KEA1 250243Z 15015KT 18/11 A2992 RMK A01 T01830111  RH  063%=      5-min Rain = 0
KEA1 250244Z 15013KT 18/11 A2992 RMK A01 T01820109  RH  062%=      5-min Rain = 0
KEA1 250245Z 15012KT 18/11 A2992 RMK A01 T01820109  RH  063%=      5-min Rain = 0
KEA1 250246Z 15012KT 18/11 A2992 RMK A01 T01800109  RH  063%=      5-min Rain = 0
KEA1 250247Z 16012KT 18/11 A2992 RMK A01 T01800109  RH  063%=      5-min Rain = 0
KEA1 250248Z 16013KT 18/11 A2992 RMK A01 T01790109  RH  063%=      5-min Rain = 0
KEA1 250249Z 16012KT 18/11 A2992 RMK A01 T01790109  RH  064%=      5-min Rain = 0
KEA1 250250Z 16012KT 18/11 A2993 RMK A01 T01780110  RH  064%=      5-min Rain = 0
KEA1 250251Z 16011KT 18/11 A2993 RMK A01 T01780109  RH  064%=      5-min Rain = 0
KEA1 250252Z 16011KT 18/11 A2993 RMK A01 T01780110  RH  064%=      5-min Rain = 0
KEA1 250253Z 16010KT 18/11 A2993 RMK A01 T01780110  RH  064%=      5-min Rain = 0
KEA1 250254Z 16010KT 18/11 A2993 RMK A01 T01780110  RH  065%=      5-min Rain = 0
KEA1 250255Z 16011KT 18/11 A2993 RMK A01 T01770110  RH  065%=      5-min Rain = 0
KEA1 250256Z 16010KT 18/11 A2993 RMK A01 T01770110  RH  065%=      5-min Rain = 0
KEA1 250257Z 16011KT 18/11 A2993 RMK A01 T01770110  RH  065%=      5-min Rain = 0
KEA1 250258Z 16011KT 18/11 A2993 RMK A01 T01770111  RH  065%=      5-min Rain = 0
KEA1 250259Z 16011KT 18/11 A2993 RMK A01 T01770111  RH  065%=      5-min Rain = 0
KEA1 250300Z 16012KT 18/11 A2994 RMK A01 T01780112  RH  065%=      5-min Rain = 0
KEA1 250301Z 16012KT 18/11 A2994 RMK A01 T01780113  RH  066%=      5-min Rain = 0
KEA1 250302Z 16011KT 18/11 A2994 RMK A01 T01780113  RH  066%=      5-min Rain = 0
KEA1 250303Z 16010KT 18/11 A2994 RMK A01 T01780114  RH  066%=      5-min Rain = 0
KEA1 250304Z 16012KT 18/12 A2994 RMK A01 T01780115  RH  066%=      5-min Rain = 0
KEA1 250305Z 16012KT 18/12 A2994 RMK A01 T01780117  RH  067%=      5-min Rain = 0
KEA1 250306Z 16012KT 18/12 A2994 RMK A01 T01790118  RH  068%=      5-min Rain = 0
KEA1 250307Z 16011KT 18/12 A2994 RMK A01 T01810120  RH  067%=      5-min Rain = 0
KEA1 250308Z 16012KT 18/12 A2994 RMK A01 T01810121  RH  068%=      5-min Rain = 0
KEA1 250309Z 16012KT 18/12 A2994 RMK A01 T01830123  RH  068%=      5-min Rain = 0
KEA1 250310Z 16013KT 18/13 A2994 RMK A01 T01840125  RH  068%=      5-min Rain = 0
KEA1 250311Z 15012KT 19/13 A2994 RMK A01 T01860127  RH  068%=      5-min Rain = 0
KEA1 250312Z 16012KT 19/13 A2994 RMK A01 T01880128  RH  068%=      5-min Rain = 0
KEA1 250313Z 16012KT 19/13 A2994 RMK A01 T01890130  RH  068%=      5-min Rain = 0
KEA1 250314Z 16013KT 19/13 A2994 RMK A01 T01920133  RH  069%=      5-min Rain = 0
KEA1 250315Z 16015KT 20/14 A2994 RMK A01 T01950136  RH  069%=      5-min Rain = 0
KEA1 250316Z 16017KT 20/14 A2994 RMK A01 T01980140  RH  069%=      5-min Rain = 0
KEA1 250317Z 15015G20KT 20/14 A2994 RMK A01 T02010143  RH  070%=      5-min Rain = 0
KEA1 250318Z 16017KT 20/15 A2995 RMK A01 T02030146  RH  070%=      5-min Rain = 0
KEA1 250319Z 15016KT 20/15 A2994 RMK A01 T02040148  RH  070%=      5-min Rain = 0
KEA1 250320Z 15019KT 21/15 A2995 RMK A01 T02060149  RH  070%=      5-min Rain = 0
KEA1 250321Z 15020KT 21/15 A2995 RMK A01 T02070150  RH  070%=      5-min Rain = 0
KEA1 250322Z 15017KT 21/15 A2995 RMK A01 T02080151  RH  070%=      5-min Rain = 0
KEA1 250323Z 14015G21KT 21/15 A2995 RMK A01 T02080150  RH  070%=      5-min Rain = 0
KEA1 250324Z 13015KT 21/15 A2995 RMK A01 T02080147  RH  068%=      5-min Rain = 0
KEA1 250325Z 14016KT 21/14 A2995 RMK A01 T02060142  RH  067%=      5-min Rain = 0
KEA1 250326Z 14016KT 21/14 A2995 RMK A01 T02050139  RH  066%=      5-min Rain = 0
KEA1 250327Z 14016G21KT 20/14 A2995 RMK A01 T02030137  RH  066%=      5-min Rain = 0
KEA1 250328Z 14018KT 20/14 A2995 RMK A01 T02020136  RH  066%=      5-min Rain = 0
KEA1 250329Z 14016KT 20/14 A2995 RMK A01 T02010135  RH  066%=      5-min Rain = 0
KEA1 250330Z 14015KT 20/13 A2995 RMK A01 T02000134  RH  066%=      5-min Rain = 0
KEA1 250331Z 14014KT 20/13 A2995 RMK A01 T02000134  RH  066%=      5-min Rain = 0
KEA1 250332Z 14016KT 20/13 A2995 RMK A01 T01990134  RH  066%=      5-min Rain = 0
KEA1 250333Z 14015KT 20/13 A2995 RMK A01 T01980133  RH  066%=      5-min Rain = 0
KEA1 250334Z 14016KT 20/13 A2996 RMK A01 T01980133  RH  066%=      5-min Rain = 0
KEA1 250335Z 14017KT 20/13 A2996 RMK A01 T01980133  RH  066%=      5-min Rain = 0
KEA1 250336Z 14016KT 20/13 A2996 RMK A01 T01980132  RH  066%=      5-min Rain = 0
KEA1 250337Z 14015KT 20/13 A2996 RMK A01 T01980132  RH  066%=      5-min Rain = 0
KEA1 250338Z 14016KT 20/13 A2996 RMK A01 T01980132  RH  066%=      5-min Rain = 0
KEA1 250339Z 14017KT 20/13 A2996 RMK A01 T01970132  RH  066%=      5-min Rain = 0
KEA1 250340Z 14017G22KT 20/13 A2996 RMK A01 T01980133  RH  066%=      5-min Rain = 0
KEA1 250341Z 14016G21KT 20/13 A2996 RMK A01 T01980133  RH  066%=      5-min Rain = 0
KEA1 250342Z 14016G21KT 20/14 A2996 RMK A01 T01980135  RH  067%=      5-min Rain = 0
KEA1 250343Z 14016KT 20/14 A2996 RMK A01 T01980136  RH  067%=      5-min Rain = 0
KEA1 250344Z 14019KT 20/14 A2996 RMK A01 T01990138  RH  068%=      5-min Rain = 0
KEA1 250345Z 14018KT 20/14 A2996 RMK A01 T02000139  RH  068%=      5-min Rain = 0
KEA1 250346Z 14017KT 20/14 A2996 RMK A01 T02000140  RH  068%=      5-min Rain = 0
KEA1 250347Z 14017G22KT 20/14 A2996 RMK A01 T02010141  RH  068%=      5-min Rain = 0
KEA1 250348Z 14018KT 20/14 A2996 RMK A01 T02010142  RH  069%=      5-min Rain = 0
KEA1 250349Z 14017G22KT 20/14 A2996 RMK A01 T02010142  RH  069%=      5-min Rain = 0
KEA1 250350Z 14017KT 20/14 A2996 RMK A01 T02010143  RH  069%=      5-min Rain = 0
KEA1 250351Z 14017KT 20/14 A2996 RMK A01 T02000143  RH  070%=      5-min Rain = 0
KEA1 250352Z 14017KT 20/14 A2996 RMK A01 T02000144  RH  070%=      5-min Rain = 0
KEA1 250353Z 14015KT 20/14 A2996 RMK A01 T01990144  RH  070%=      5-min Rain = 0
KEA1 250354Z 14017G23KT 20/15 A2996 RMK A01 T01990145  RH  071%=      5-min Rain = 0
KEA1 250355Z 14016KT 20/15 A2996 RMK A01 T01990146  RH  071%=      5-min Rain = 0
KEA1 250356Z 14018KT 20/15 A2996 RMK A01 T01990146  RH  072%=      5-min Rain = 0
KEA1 250357Z 14017KT 20/15 A2996 RMK A01 T01990147  RH  072%=      5-min Rain = 0
KEA1 250358Z 14018KT 20/15 A2996 RMK A01 T01990147  RH  072%=      5-min Rain = 0
KEA1 250359Z 14018KT 20/15 A2996 RMK A01 T02000148  RH  072%=      5-min Rain = 0
KEA1 250400Z 14019KT 20/15 A2996 RMK A01 T02000148  RH  072%=      5-min Rain = 0
KEA1 250401Z 14016KT 20/15 A2996 RMK A01 T02010149  RH  072%=      5-min Rain = 0
KEA1 250402Z 14017KT 20/15 A2996 RMK A01 T02010149  RH  072%=      5-min Rain = 0
KEA1 250403Z 14018G23KT 20/15 A2996 RMK A01 T02010149  RH  072%=      5-min Rain = 0
KEA1 250404Z 14018KT 20/15 A2996 RMK A01 T02010149  RH  072%=      5-min Rain = 0
KEA1 250405Z 14016KT 20/15 A2996 RMK A01 T02010149  RH  072%=      5-min Rain = 0
KEA1 250406Z 14015G21KT 20/15 A2996 RMK A01 T02010149  RH  072%=      5-min Rain = 0
KEA1 250407Z 14015KT 20/15 A2996 RMK A01 T02000149  RH  072%=      5-min Rain = 0
KEA1 250408Z 14013G18KT 20/15 A2996 RMK A01 T02000150  RH  072%=      5-min Rain = 0
KEA1 250409Z 14013KT 20/15 A2996 RMK A01 T01990149  RH  073%=      5-min Rain = 0
KEA1 250410Z 14015KT 20/15 A2996 RMK A01 T01990149  RH  073%=      5-min Rain = 0
KEA1 250411Z 14016KT 20/15 A2996 RMK A01 T01980149  RH  073%=      5-min Rain = 0
KEA1 250412Z 14017KT 20/15 A2996 RMK A01 T01980149  RH  073%=      5-min Rain = 0
KEA1 250413Z 14016G21KT 20/15 A2996 RMK A01 T01980150  RH  074%=      5-min Rain = 0
KEA1 250414Z 14017KT 20/15 A2997 RMK A01 T01980150  RH  074%=      5-min Rain = 0
KEA1 250415Z 14015KT 20/15 A2997 RMK A01 T01980150  RH  074%=      5-min Rain = 0
KEA1 250416Z 14018KT 20/15 A2997 RMK A01 T01980151  RH  074%=      5-min Rain = 0
KEA1 250417Z 14017KT 20/15 A2997 RMK A01 T01990151  RH  074%=      5-min Rain = 0
KEA1 250418Z 14016KT 20/15 A2997 RMK A01 T01990151  RH  074%=      5-min Rain = 0
KEA1 250419Z 14017KT 20/15 A2997 RMK A01 T01980151  RH  074%=      5-min Rain = 0
KEA1 250420Z 14018KT 20/15 A2997 RMK A01 T01980151  RH  074%=      5-min Rain = 0
KEA1 250421Z 14015KT 20/15 A2997 RMK A01 T01980151  RH  074%=      5-min Rain = 0
KEA1 250422Z 14016KT 20/15 A2997 RMK A01 T01980151  RH  075%=      5-min Rain = 0
KEA1 250423Z 14013KT 20/15 A2997 RMK A01 T01970151  RH  075%=      5-min Rain = 0
KEA1 250424Z 14014KT 20/15 A2997 RMK A01 T01960151  RH  075%=      5-min Rain = 0
KEA1 250425Z 14016KT 20/15 A2997 RMK A01 T01950151  RH  075%=      5-min Rain = 0
KEA1 250426Z 14014KT 20/15 A2997 RMK A01 T01960151  RH  076%=      5-min Rain = 0
KEA1 250427Z 14015KT 20/15 A2997 RMK A01 T01950151  RH  076%=      5-min Rain = 0
KEA1 250428Z 14016KT 20/15 A2997 RMK A01 T01950152  RH  076%=      5-min Rain = 0
KEA1 250429Z 14016KT 20/15 A2997 RMK A01 T01950152  RH  076%=      5-min Rain = 0
KEA1 250430Z 14016KT 20/15 A2997 RMK A01 T01950153  RH  076%=      5-min Rain = 0
KEA1 250431Z 14017KT 20/15 A2997 RMK A01 T01950153  RH  077%=      5-min Rain = 0
KEA1 250432Z 14017KT 20/15 A2997 RMK A01 T01960154  RH  077%=      5-min Rain = 0
KEA1 250433Z 14015KT 20/15 A2997 RMK A01 T01960154  RH  077%=      5-min Rain = 0
KEA1 250434Z 14015KT 20/16 A2997 RMK A01 T01960155  RH  077%=      5-min Rain = 0
KEA1 250435Z 14016KT 20/16 A2997 RMK A01 T01960155  RH  077%=      5-min Rain = 0
KEA1 250436Z 14015KT 20/16 A2997 RMK A01 T01960156  RH  077%=      5-min Rain = 0
KEA1 250437Z 14016G21KT 20/16 A2997 RMK A01 T01960156  RH  078%=      5-min Rain = 0
KEA1 250438Z 14017KT 20/16 A2997 RMK A01 T01960157  RH  078%=      5-min Rain = 0
KEA1 250439Z 14015KT 20/16 A2997 RMK A01 T01970157  RH  078%=      5-min Rain = 0
KEA1 250440Z 14016KT 20/16 A2997 RMK A01 T01970158  RH  078%=      5-min Rain = 0
KEA1 250441Z 14016KT 20/16 A2997 RMK A01 T01970158  RH  078%=      5-min Rain = 0
KEA1 250442Z 14016KT 20/16 A2997 RMK A01 T01970158  RH  078%=      5-min Rain = 0
KEA1 250443Z 14016KT 20/16 A2997 RMK A01 T01970158  RH  078%=      5-min Rain = 0
KEA1 250444Z 14015KT 20/16 A2997 RMK A01 T01970158  RH  078%=      5-min Rain = 0
KEA1 250445Z 14017KT 20/16 A2998 RMK A01 T01970159  RH  079%=      5-min Rain = 0
KEA1 250446Z 14015G20KT 20/16 A2998 RMK A01 T01970159  RH  079%=      5-min Rain = 0
KEA1 250447Z 14017KT 20/16 A2998 RMK A01 T01970160  RH  079%=      5-min Rain = 0
KEA1 250448Z 14016G21KT 20/16 A2998 RMK A01 T01970160  RH  079%=      5-min Rain = 0
KEA1 250449Z 14018KT 20/16 A2998 RMK A01 T01970160  RH  079%=      5-min Rain = 0
KEA1 250450Z 14020KT 20/16 A2997 RMK A01 T01970161  RH  079%=      5-min Rain = 0
KEA1 250451Z 14016KT 20/16 A2997 RMK A01 T01980161  RH  079%=      5-min Rain = 0
KEA1 250452Z 14017G22KT 20/16 A2998 RMK A01 T01980162  RH  079%=      5-min Rain = 0
KEA1 250453Z 14017KT 20/16 A2998 RMK A01 T01980162  RH  080%=      5-min Rain = 0
KEA1 250454Z 14017KT 20/16 A2997 RMK A01 T01980162  RH  080%=      5-min Rain = 0
KEA1 250455Z 14020G25KT 20/16 A2997 RMK A01 T01980163  RH  080%=      5-min Rain = 0
KEA1 250456Z 14017KT 20/16 A2998 RMK A01 T01980163  RH  080%=      5-min Rain = 0
KEA1 250457Z 14019KT 20/16 A2998 RMK A01 T01990163  RH  080%=      5-min Rain = 0
KEA1 250458Z 14018KT 20/16 A2997 RMK A01 T01980164  RH  080%=      5-min Rain = 0
KEA1 250459Z 14016G22KT 20/16 A2997 RMK A01 T01990164  RH  080%=      5-min Rain = 0

Page generated in 0.1272 seconds.